<?xml version='1.0' encoding='UTF-8'?><gpx version="1.1" creator="JPX - https://github.com/jenetics/jpx" xmlns="http://www.topografix.com/GPX/1/1"><trk><trkseg><trkpt lat="49.08771820448461" lon="7.9259606616290865"><ele>425.49999999999994</ele><time>2026-05-01T14:30:59Z</time></trkpt><trkpt lat="49.08772859047801" lon="7.925839124985553"><ele>426.0</ele><time>2026-05-01T14:31:44Z</time></trkpt><trkpt lat="49.087710635031875" lon="7.925732337678143"><ele>426.5</ele><time>2026-05-01T14:31:48Z</time></trkpt><trkpt lat="49.08778053703141" lon="7.925677483650988"><ele>427.0</ele><time>2026-05-01T14:31:52Z</time></trkpt><trkpt lat="49.08785225246983" lon="7.925675539702003"><ele>427.49999999999994</ele><time>2026-05-01T14:31:55Z</time></trkpt><trkpt lat="49.087930395558224" lon="7.925697001446241"><ele>428.0</ele><time>2026-05-01T14:31:58Z</time></trkpt><trkpt lat="49.08800551296825" lon="7.925659192094179"><ele>427.99999999999994</ele><time>2026-05-01T14:32:02Z</time></trkpt><trkpt lat="49.08807618615348" lon="7.925643628648544"><ele>428.0</ele><time>2026-05-01T14:32:07Z</time></trkpt><trkpt lat="49.08815224865768" lon="7.925603247421351"><ele>428.0</ele><time>2026-05-01T14:32:11Z</time></trkpt><trkpt lat="49.08821636843742" lon="7.92558223482425"><ele>428.0</ele><time>2026-05-01T14:32:15Z</time></trkpt><trkpt lat="49.088285317647156" lon="7.925516981159635"><ele>427.99999999999994</ele><time>2026-05-01T14:32:19Z</time></trkpt><trkpt lat="49.088355048753144" lon="7.925464066021003"><ele>428.0</ele><time>2026-05-01T14:32:24Z</time></trkpt><trkpt lat="49.08843047952123" lon="7.92541429875376"><ele>429.49999999999994</ele><time>2026-05-01T14:32:28Z</time></trkpt><trkpt lat="49.08848836524229" lon="7.925346939742529"><ele>431.0</ele><time>2026-05-01T14:32:31Z</time></trkpt><trkpt lat="49.08858729399714" lon="7.925251709607364"><ele>432.5</ele><time>2026-05-01T14:32:37Z</time></trkpt><trkpt lat="49.0886767051108" lon="7.925206101099397"><ele>434.0</ele><time>2026-05-01T14:32:42Z</time></trkpt><trkpt lat="49.08873401882553" lon="7.925151631794536"><ele>435.49999999999994</ele><time>2026-05-01T14:32:45Z</time></trkpt><trkpt lat="49.08879792484334" lon="7.925093827720318"><ele>437.0</ele><time>2026-05-01T14:32:49Z</time></trkpt><trkpt lat="49.088855949341855" lon="7.925033965022818"><ele>438.71428571428567</ele><time>2026-05-01T14:32:53Z</time></trkpt><trkpt lat="49.088913913480155" lon="7.924978686151995"><ele>440.42857142857144</ele><time>2026-05-01T14:32:57Z</time></trkpt><trkpt lat="49.08898139585164" lon="7.9249622709482335"><ele>442.1428571428571</ele><time>2026-05-01T14:33:00Z</time></trkpt><trkpt lat="49.08903875645381" lon="7.924919964161558"><ele>443.85714285714283</ele><time>2026-05-01T14:33:03Z</time></trkpt><trkpt lat="49.089109557020144" lon="7.924917587253403"><ele>445.57142857142856</ele><time>2026-05-01T14:33:06Z</time></trkpt><trkpt lat="49.08917808055474" lon="7.924921562474678"><ele>447.2857142857143</ele><time>2026-05-01T14:33:09Z</time></trkpt><trkpt lat="49.08925405936404" lon="7.924876185774492"><ele>449.0</ele><time>2026-05-01T14:33:13Z</time></trkpt><trkpt lat="49.08934007256039" lon="7.924864349406917"><ele>449.57142857142856</ele><time>2026-05-01T14:33:17Z</time></trkpt><trkpt lat="49.08940981817433" lon="7.924905403085384"><ele>450.1428571428571</ele><time>2026-05-01T14:33:21Z</time></trkpt><trkpt lat="49.089488508105894" lon="7.924888934939504"><ele>450.71428571428567</ele><time>2026-05-01T14:33:24Z</time></trkpt><trkpt lat="49.08955662561552" lon="7.924832738201985"><ele>451.2857142857142</ele><time>2026-05-01T14:33:52Z</time></trkpt><trkpt lat="49.08962118123056" lon="7.924808301811653"><ele>451.85714285714283</ele><time>2026-05-01T14:33:55Z</time></trkpt><trkpt lat="49.08968556264267" lon="7.9248381134399155"><ele>452.42857142857133</ele><time>2026-05-01T14:34:00Z</time></trkpt><trkpt lat="49.0897610031177" lon="7.924848776758384"><ele>452.99999999999994</ele><time>2026-05-01T14:34:03Z</time></trkpt><trkpt lat="49.08983257759504" lon="7.924895181166681"><ele>452.99999999999994</ele><time>2026-05-01T14:34:06Z</time></trkpt><trkpt lat="49.089893757692856" lon="7.92493933606786"><ele>453.0</ele><time>2026-05-01T14:34:10Z</time></trkpt><trkpt lat="49.08996168779512" lon="7.924953698536671"><ele>452.99999999999994</ele><time>2026-05-01T14:34:14Z</time></trkpt><trkpt lat="49.090017374527896" lon="7.925013694835105"><ele>452.99999999999994</ele><time>2026-05-01T14:34:19Z</time></trkpt><trkpt lat="49.090075506582295" lon="7.925068694891872"><ele>453.0</ele><time>2026-05-01T14:34:23Z</time></trkpt><trkpt lat="49.09012319876698" lon="7.925141814124139"><ele>452.99999999999994</ele><time>2026-05-01T14:34:27Z</time></trkpt><trkpt lat="49.09018640979061" lon="7.925182303081093"><ele>452.99999999999994</ele><time>2026-05-01T14:34:31Z</time></trkpt><trkpt lat="49.0902453980253" lon="7.925243970436218"><ele>452.42857142857133</ele><time>2026-05-01T14:34:35Z</time></trkpt><trkpt lat="49.09027981986699" lon="7.925346955677388"><ele>451.85714285714283</ele><time>2026-05-01T14:34:39Z</time></trkpt><trkpt lat="49.09034837712205" lon="7.925373630191799"><ele>451.2857142857142</ele><time>2026-05-01T14:34:43Z</time></trkpt><trkpt lat="49.09041456935903" lon="7.925395750586868"><ele>450.71428571428567</ele><time>2026-05-01T14:34:47Z</time></trkpt><trkpt lat="49.09049263454887" lon="7.925386489749931"><ele>450.1428571428571</ele><time>2026-05-01T14:34:51Z</time></trkpt><trkpt lat="49.090560699221996" lon="7.9253341031149525"><ele>449.57142857142856</ele><time>2026-05-01T14:34:55Z</time></trkpt><trkpt lat="49.090605914896074" lon="7.925245607938283"><ele>449.0</ele><time>2026-05-01T14:34:59Z</time></trkpt><trkpt lat="49.09062224503405" lon="7.925145821531502"><ele>451.4285714285714</ele><time>2026-05-01T14:35:03Z</time></trkpt><trkpt lat="49.09063996921382" lon="7.9250346253898885"><ele>453.8571428571428</ele><time>2026-05-01T14:35:07Z</time></trkpt><trkpt lat="49.09061033162056" lon="7.9249439194571085"><ele>456.2857142857143</ele><time>2026-05-01T14:35:10Z</time></trkpt><trkpt lat="49.090588739614155" lon="7.924838311393283"><ele>458.71428571428567</ele><time>2026-05-01T14:35:14Z</time></trkpt><trkpt lat="49.09056971830139" lon="7.924737999205936"><ele>461.1428571428571</ele><time>2026-05-01T14:35:18Z</time></trkpt><trkpt lat="49.09055104421208" lon="7.9246391227030495"><ele>463.57142857142856</ele><time>2026-05-01T14:35:22Z</time></trkpt><trkpt lat="49.09052089431455" lon="7.924542945421554"><ele>466.0</ele><time>2026-05-01T14:35:26Z</time></trkpt><trkpt lat="49.09049378967868" lon="7.92444739294938"><ele>466.0</ele><time>2026-05-01T14:35:30Z</time></trkpt><trkpt lat="49.09045656789341" lon="7.924362445579388"><ele>466.0</ele><time>2026-05-01T14:35:34Z</time></trkpt><trkpt lat="49.09041485657099" lon="7.924274041544519"><ele>466.0</ele><time>2026-05-01T14:35:38Z</time></trkpt><trkpt lat="49.09037480095617" lon="7.924186753582536"><ele>466.0</ele><time>2026-05-01T14:35:42Z</time></trkpt><trkpt lat="49.090332008614176" lon="7.924099745774901"><ele>466.0</ele><time>2026-05-01T14:35:47Z</time></trkpt><trkpt lat="49.09028822792004" lon="7.924016308916673"><ele>466.0</ele><time>2026-05-01T14:35:51Z</time></trkpt><trkpt lat="49.090249907092186" lon="7.923935714853939"><ele>466.0</ele><time>2026-05-01T14:35:55Z</time></trkpt><trkpt lat="49.09017762395152" lon="7.92391136970385"><ele>468.00000000000006</ele><time>2026-05-01T14:36:05Z</time></trkpt><trkpt lat="49.09017217354744" lon="7.923802857080945"><ele>470.0</ele><time>2026-05-01T14:36:10Z</time></trkpt><trkpt lat="49.09015494118724" lon="7.92369389380861"><ele>472.0</ele><time>2026-05-01T14:37:01Z</time></trkpt><trkpt lat="49.09013865765259" lon="7.923585936840843"><ele>474.0</ele><time>2026-05-01T14:37:11Z</time></trkpt><trkpt lat="49.090105453283456" lon="7.923455959419309"><ele>476.00000000000006</ele><time>2026-05-01T14:37:15Z</time></trkpt><trkpt lat="49.09010915179283" lon="7.923351672112251"><ele>478.0</ele><time>2026-05-01T14:37:18Z</time></trkpt><trkpt lat="49.090078072594366" lon="7.923246783711521"><ele>478.83333333333337</ele><time>2026-05-01T14:37:21Z</time></trkpt><trkpt lat="49.09007306038651" lon="7.923102209190932"><ele>479.6666666666667</ele><time>2026-05-01T14:37:24Z</time></trkpt><trkpt lat="49.090043745504424" lon="7.922993534000638"><ele>480.5</ele><time>2026-05-01T14:37:28Z</time></trkpt><trkpt lat="49.090017731423565" lon="7.9228801385569065"><ele>481.33333333333337</ele><time>2026-05-01T14:37:31Z</time></trkpt><trkpt lat="49.090003026973385" lon="7.922783090206451"><ele>482.1666666666667</ele><time>2026-05-01T14:37:34Z</time></trkpt><trkpt lat="49.089986644008015" lon="7.922665468920767"><ele>483.0</ele><time>2026-05-01T14:37:37Z</time></trkpt><trkpt lat="49.08996373018485" lon="7.9225717597017695"><ele>482.6666666666667</ele><time>2026-05-01T14:37:40Z</time></trkpt><trkpt lat="49.08995119665522" lon="7.922447075296083"><ele>482.33333333333337</ele><time>2026-05-01T14:37:43Z</time></trkpt><trkpt lat="49.089930160177644" lon="7.922341257306464"><ele>482.0</ele><time>2026-05-01T14:37:46Z</time></trkpt><trkpt lat="49.089911484663546" lon="7.92224871576232"><ele>481.6666666666667</ele><time>2026-05-01T14:37:49Z</time></trkpt><trkpt lat="49.08987154449445" lon="7.9221524924211995"><ele>481.33333333333337</ele><time>2026-05-01T14:37:52Z</time></trkpt><trkpt lat="49.089824411758855" lon="7.922038572772481"><ele>481.0</ele><time>2026-05-01T14:37:56Z</time></trkpt><trkpt lat="49.089792113934216" lon="7.921935044564064"><ele>484.83333333333337</ele><time>2026-05-01T14:37:59Z</time></trkpt><trkpt lat="49.08974492352813" lon="7.921827183116791"><ele>488.6666666666667</ele><time>2026-05-01T14:38:02Z</time></trkpt><trkpt lat="49.089723931989866" lon="7.921701640882542"><ele>492.5</ele><time>2026-05-01T14:38:05Z</time></trkpt><trkpt lat="49.08968899225888" lon="7.921594869607884"><ele>496.33333333333337</ele><time>2026-05-01T14:38:08Z</time></trkpt><trkpt lat="49.08965029550848" lon="7.921488947320591"><ele>500.1666666666667</ele><time>2026-05-01T14:38:11Z</time></trkpt><trkpt lat="49.08962232876712" lon="7.92137292961866"><ele>504.0</ele><time>2026-05-01T14:38:14Z</time></trkpt><trkpt lat="49.089589511656165" lon="7.921252298313649"><ele>504.1666666666667</ele><time>2026-05-01T14:38:18Z</time></trkpt><trkpt lat="49.08953657725462" lon="7.921180910999342"><ele>504.33333333333337</ele><time>2026-05-01T14:38:21Z</time></trkpt><trkpt lat="49.089515944969776" lon="7.921057029677809"><ele>504.5</ele><time>2026-05-01T14:38:24Z</time></trkpt><trkpt lat="49.08948007611479" lon="7.920948837381737"><ele>504.6666666666667</ele><time>2026-05-01T14:38:27Z</time></trkpt><trkpt lat="49.089442597894696" lon="7.920860394597211"><ele>504.83333333333337</ele><time>2026-05-01T14:38:30Z</time></trkpt><trkpt lat="49.08941823966671" lon="7.920752435327483"><ele>505.0</ele><time>2026-05-01T14:38:33Z</time></trkpt><trkpt lat="49.089381661488154" lon="7.920652308597865"><ele>505.00000000000006</ele><time>2026-05-01T14:38:36Z</time></trkpt><trkpt lat="49.08933710960708" lon="7.920554491540548"><ele>505.0</ele><time>2026-05-01T14:38:40Z</time></trkpt><trkpt lat="49.08929915214668" lon="7.920435900140403"><ele>505.0</ele><time>2026-05-01T14:38:44Z</time></trkpt><trkpt lat="49.089271581328326" lon="7.920323769368002"><ele>505.0</ele><time>2026-05-01T14:38:48Z</time></trkpt><trkpt lat="49.08923552133818" lon="7.920241628514753"><ele>505.00000000000006</ele><time>2026-05-01T14:38:51Z</time></trkpt><trkpt lat="49.08919853266777" lon="7.920140904352949"><ele>505.0</ele><time>2026-05-01T14:38:55Z</time></trkpt><trkpt lat="49.089182414165585" lon="7.9200419236468464"><ele>503.83333333333337</ele><time>2026-05-01T14:38:57Z</time></trkpt><trkpt lat="49.08915622253325" lon="7.919942546099838"><ele>502.6666666666667</ele><time>2026-05-01T14:39:00Z</time></trkpt><trkpt lat="49.08913788241862" lon="7.919837177486938"><ele>501.5</ele><time>2026-05-01T14:39:03Z</time></trkpt><trkpt lat="49.089095815317776" lon="7.919726431490209"><ele>500.33333333333337</ele><time>2026-05-01T14:39:07Z</time></trkpt><trkpt lat="49.0890731148599" lon="7.919588115767715"><ele>499.1666666666667</ele><time>2026-05-01T14:39:11Z</time></trkpt><trkpt lat="49.08907765288479" lon="7.9194635455032065"><ele>498.0</ele><time>2026-05-01T14:39:14Z</time></trkpt><trkpt lat="49.089045413292375" lon="7.91938020004234"><ele>502.8333333333333</ele><time>2026-05-01T14:39:17Z</time></trkpt><trkpt lat="49.089002090892954" lon="7.9192736796998675"><ele>507.66666666666663</ele><time>2026-05-01T14:39:21Z</time></trkpt><trkpt lat="49.08895553488204" lon="7.919164304145495"><ele>512.5</ele><time>2026-05-01T14:39:25Z</time></trkpt><trkpt lat="49.08891331719148" lon="7.919067256290684"><ele>517.3333333333333</ele><time>2026-05-01T14:39:29Z</time></trkpt><trkpt lat="49.088872965534314" lon="7.9189627895784955"><ele>522.1666666666666</ele><time>2026-05-01T14:39:33Z</time></trkpt><trkpt lat="49.088830332554195" lon="7.918877228783922"><ele>527.0</ele><time>2026-05-01T14:39:37Z</time></trkpt><trkpt lat="49.088776414104025" lon="7.918771076222069"><ele>527.0</ele><time>2026-05-01T14:39:41Z</time></trkpt><trkpt lat="49.088738109336326" lon="7.918672413660433"><ele>527.0</ele><time>2026-05-01T14:39:45Z</time></trkpt><trkpt lat="49.08868844263062" lon="7.91857483541191"><ele>527.0</ele><time>2026-05-01T14:39:49Z</time></trkpt><trkpt lat="49.0886365616343" lon="7.918477214630504"><ele>527.0</ele><time>2026-05-01T14:39:53Z</time></trkpt><trkpt lat="49.08859577115907" lon="7.918403350581807"><ele>527.0</ele><time>2026-05-01T14:39:56Z</time></trkpt><trkpt lat="49.088545785937434" lon="7.918313502976177"><ele>527.0</ele><time>2026-05-01T14:39:59Z</time></trkpt><trkpt lat="49.08848718347119" lon="7.918223130353639"><ele>525.2857142857143</ele><time>2026-05-01T14:40:02Z</time></trkpt><trkpt lat="49.08844739811772" lon="7.918141756007823"><ele>523.5714285714286</ele><time>2026-05-01T14:40:05Z</time></trkpt><trkpt lat="49.088401964969435" lon="7.91806156992068"><ele>521.8571428571429</ele><time>2026-05-01T14:40:08Z</time></trkpt><trkpt lat="49.08835165330337" lon="7.917997612397008"><ele>520.1428571428571</ele><time>2026-05-01T14:40:12Z</time></trkpt><trkpt lat="49.08830992915979" lon="7.917916889332575"><ele>518.4285714285714</ele><time>2026-05-01T14:40:15Z</time></trkpt><trkpt lat="49.088257744058225" lon="7.917821610677232"><ele>516.7142857142858</ele><time>2026-05-01T14:40:19Z</time></trkpt><trkpt lat="49.08819995684362" lon="7.917763400864799"><ele>515.0</ele><time>2026-05-01T14:40:22Z</time></trkpt><trkpt lat="49.08814182167222" lon="7.917657709741144"><ele>517.1428571428571</ele><time>2026-05-01T14:40:26Z</time></trkpt><trkpt lat="49.0880978209364" lon="7.91758263789962"><ele>519.2857142857142</ele><time>2026-05-01T14:40:29Z</time></trkpt><trkpt lat="49.08805071692481" lon="7.917482854852484"><ele>521.4285714285713</ele><time>2026-05-01T14:40:33Z</time></trkpt><trkpt lat="49.08799572033175" lon="7.9173790117440905"><ele>523.5714285714286</ele><time>2026-05-01T14:40:37Z</time></trkpt><trkpt lat="49.0879317408104" lon="7.917313623294231"><ele>525.7142857142857</ele><time>2026-05-01T14:40:40Z</time></trkpt><trkpt lat="49.0878745999633" lon="7.917243003872036"><ele>527.8571428571428</ele><time>2026-05-01T14:40:44Z</time></trkpt><trkpt lat="49.08782365173666" lon="7.917181372800262"><ele>530.0</ele><time>2026-05-01T14:40:47Z</time></trkpt><trkpt lat="49.08776370121909" lon="7.917100518269728"><ele>529.9999999999999</ele><time>2026-05-01T14:40:51Z</time></trkpt><trkpt lat="49.08770917690282" lon="7.917012322598844"><ele>530.0</ele><time>2026-05-01T14:40:55Z</time></trkpt><trkpt lat="49.08766124373441" lon="7.916909075112537"><ele>530.0</ele><time>2026-05-01T14:40:59Z</time></trkpt><trkpt lat="49.087604796237734" lon="7.916845344960923"><ele>530.0</ele><time>2026-05-01T14:41:03Z</time></trkpt><trkpt lat="49.08756396294975" lon="7.916745493341926"><ele>530.0</ele><time>2026-05-01T14:41:06Z</time></trkpt><trkpt lat="49.08752018197647" lon="7.916663451274485"><ele>529.9999999999999</ele><time>2026-05-01T14:41:10Z</time></trkpt><trkpt lat="49.087483432795445" lon="7.916585265432005"><ele>530.0</ele><time>2026-05-01T14:41:13Z</time></trkpt><trkpt lat="49.08743529342958" lon="7.916500993717736"><ele>533.2857142857142</ele><time>2026-05-01T14:41:17Z</time></trkpt><trkpt lat="49.08741588038021" lon="7.916392560443383"><ele>536.5714285714286</ele><time>2026-05-01T14:41:20Z</time></trkpt><trkpt lat="49.087392583884586" lon="7.916302790219694"><ele>539.8571428571429</ele><time>2026-05-01T14:41:23Z</time></trkpt><trkpt lat="49.08736744456236" lon="7.916188440427655"><ele>543.1428571428571</ele><time>2026-05-01T14:41:27Z</time></trkpt><trkpt lat="49.087341242157386" lon="7.916090360601151"><ele>546.4285714285714</ele><time>2026-05-01T14:41:30Z</time></trkpt><trkpt lat="49.08734475806626" lon="7.915965557292194"><ele>549.7142857142857</ele><time>2026-05-01T14:41:33Z</time></trkpt><trkpt lat="49.0873378576192" lon="7.915856662341223"><ele>553.0</ele><time>2026-05-01T14:41:36Z</time></trkpt><trkpt lat="49.087349649405084" lon="7.915750933304417"><ele>553.2857142857143</ele><time>2026-05-01T14:41:39Z</time></trkpt><trkpt lat="49.08736268724567" lon="7.915603670558399"><ele>553.5714285714286</ele><time>2026-05-01T14:41:42Z</time></trkpt><trkpt lat="49.08736545963833" lon="7.9155064942291835"><ele>553.8571428571429</ele><time>2026-05-01T14:41:46Z</time></trkpt><trkpt lat="49.087380178877645" lon="7.915408477769891"><ele>554.1428571428571</ele><time>2026-05-01T14:41:50Z</time></trkpt><trkpt lat="49.08737671171213" lon="7.915311330173806"><ele>554.4285714285714</ele><time>2026-05-01T14:41:53Z</time></trkpt><trkpt lat="49.08741107363923" lon="7.915199473038373"><ele>554.7142857142858</ele><time>2026-05-01T14:41:56Z</time></trkpt><trkpt lat="49.0874417842911" lon="7.91509972441081"><ele>555.0</ele><time>2026-05-01T14:41:59Z</time></trkpt><trkpt lat="49.087463674444194" lon="7.915007096492865"><ele>550.5714285714287</ele><time>2026-05-01T14:42:02Z</time></trkpt><trkpt lat="49.08746682898682" lon="7.914891559646242"><ele>546.1428571428571</ele><time>2026-05-01T14:42:06Z</time></trkpt><trkpt lat="49.08752077382804" lon="7.914790421683953"><ele>541.7142857142858</ele><time>2026-05-01T14:42:09Z</time></trkpt><trkpt lat="49.08755750995055" lon="7.91468216615192"><ele>537.2857142857143</ele><time>2026-05-01T14:42:12Z</time></trkpt><trkpt lat="49.08756973340029" lon="7.914583422701787"><ele>532.8571428571429</ele><time>2026-05-01T14:42:15Z</time></trkpt><trkpt lat="49.08761761546406" lon="7.914513226396022"><ele>528.4285714285714</ele><time>2026-05-01T14:42:17Z</time></trkpt><trkpt lat="49.087654103725185" lon="7.9144128038672505"><ele>524.0</ele><time>2026-05-01T14:42:20Z</time></trkpt><trkpt lat="49.08767900495818" lon="7.914321502439531"><ele>526.3333333333333</ele><time>2026-05-01T14:42:23Z</time></trkpt><trkpt lat="49.087708451669016" lon="7.9142305502131425"><ele>528.6666666666666</ele><time>2026-05-01T14:42:26Z</time></trkpt><trkpt lat="49.087738611767904" lon="7.914136421131818"><ele>531.0</ele><time>2026-05-01T14:42:29Z</time></trkpt><trkpt lat="49.08779710103915" lon="7.914048480557674"><ele>533.3333333333334</ele><time>2026-05-01T14:42:32Z</time></trkpt><trkpt lat="49.087844146152634" lon="7.913950092000449"><ele>535.6666666666667</ele><time>2026-05-01T14:42:35Z</time></trkpt><trkpt lat="49.08790349776724" lon="7.9138418119082115"><ele>538.0</ele><time>2026-05-01T14:42:39Z</time></trkpt><trkpt lat="49.08793779826595" lon="7.9137329607597335"><ele>538.0</ele><time>2026-05-01T14:42:43Z</time></trkpt><trkpt lat="49.08799325181824" lon="7.913658864162421"><ele>538.0</ele><time>2026-05-01T14:42:46Z</time></trkpt><trkpt lat="49.08803013305842" lon="7.913559920243856"><ele>538.0</ele><time>2026-05-01T14:42:49Z</time></trkpt><trkpt lat="49.0880911468247" lon="7.913453637527051"><ele>538.0</ele><time>2026-05-01T14:42:52Z</time></trkpt><trkpt lat="49.088123177807404" lon="7.913367852207219"><ele>538.0</ele><time>2026-05-01T14:42:55Z</time></trkpt><trkpt lat="49.08814957499" lon="7.913267896165653"><ele>538.0</ele><time>2026-05-01T14:42:58Z</time></trkpt><trkpt lat="49.0881423912392" lon="7.913171740806124"><ele>538.0</ele><time>2026-05-01T14:43:01Z</time></trkpt><trkpt lat="49.08811622223983" lon="7.913072665190591"><ele>538.2857142857143</ele><time>2026-05-01T14:43:05Z</time></trkpt><trkpt lat="49.088049231900946" lon="7.913022270727325"><ele>538.5714285714287</ele><time>2026-05-01T14:43:09Z</time></trkpt><trkpt lat="49.08798265658233" lon="7.912945831101334"><ele>538.8571428571429</ele><time>2026-05-01T14:43:13Z</time></trkpt><trkpt lat="49.08792870036321" lon="7.912896248023083"><ele>539.1428571428571</ele><time>2026-05-01T14:43:16Z</time></trkpt><trkpt lat="49.08786351014415" lon="7.912848670482251"><ele>539.4285714285713</ele><time>2026-05-01T14:43:19Z</time></trkpt><trkpt lat="49.0877790994389" lon="7.912822179017251"><ele>539.7142857142857</ele><time>2026-05-01T14:43:23Z</time></trkpt><trkpt lat="49.08771631928281" lon="7.9128337081807665"><ele>540.0</ele><time>2026-05-01T14:43:26Z</time></trkpt><trkpt lat="49.08762951088204" lon="7.912788944340279"><ele>540.0</ele><time>2026-05-01T14:43:30Z</time></trkpt><trkpt lat="49.08755731641045" lon="7.912744861727837"><ele>540.0</ele><time>2026-05-01T14:43:34Z</time></trkpt><trkpt lat="49.08748198043676" lon="7.912695417076045"><ele>540.0</ele><time>2026-05-01T14:43:38Z</time></trkpt><trkpt lat="49.08741203009065" lon="7.912644234471944"><ele>540.0</ele><time>2026-05-01T14:43:42Z</time></trkpt><trkpt lat="49.08735157780849" lon="7.912594878237137"><ele>540.0</ele><time>2026-05-01T14:43:45Z</time></trkpt><trkpt lat="49.087288380014414" lon="7.912543280336006"><ele>540.0</ele><time>2026-05-01T14:43:49Z</time></trkpt><trkpt lat="49.087233948841515" lon="7.91247480397305"><ele>540.0</ele><time>2026-05-01T14:43:52Z</time></trkpt><trkpt lat="49.087172905435935" lon="7.912406933366151"><ele>542.3333333333334</ele><time>2026-05-01T14:43:55Z</time></trkpt><trkpt lat="49.08711185724421" lon="7.912318178840551"><ele>544.6666666666666</ele><time>2026-05-01T14:43:58Z</time></trkpt><trkpt lat="49.087057185434" lon="7.9122024107671365"><ele>547.0</ele><time>2026-05-01T14:44:01Z</time></trkpt><trkpt lat="49.08701952955678" lon="7.912076108218455"><ele>549.3333333333333</ele><time>2026-05-01T14:44:04Z</time></trkpt><trkpt lat="49.086998965967915" lon="7.911977482191075"><ele>551.6666666666666</ele><time>2026-05-01T14:44:07Z</time></trkpt><trkpt lat="49.086978345944786" lon="7.911858668477157"><ele>554.0</ele><time>2026-05-01T14:44:10Z</time></trkpt><trkpt lat="49.086960319534164" lon="7.9117618652116875"><ele>552.8571428571429</ele><time>2026-05-01T14:44:13Z</time></trkpt><trkpt lat="49.08693757231332" lon="7.9116511542385295"><ele>551.7142857142857</ele><time>2026-05-01T14:44:17Z</time></trkpt><trkpt lat="49.086919730787216" lon="7.911535419225215"><ele>550.5714285714286</ele><time>2026-05-01T14:44:20Z</time></trkpt><trkpt lat="49.08690030539322" lon="7.911432849280717"><ele>549.4285714285714</ele><time>2026-05-01T14:44:23Z</time></trkpt><trkpt lat="49.08687365267321" lon="7.911326062126398"><ele>548.2857142857142</ele><time>2026-05-01T14:44:26Z</time></trkpt><trkpt lat="49.08684226710776" lon="7.911225461320724"><ele>547.1428571428571</ele><time>2026-05-01T14:44:29Z</time></trkpt><trkpt lat="49.08682745954333" lon="7.911118331386517"><ele>546.0</ele><time>2026-05-01T14:44:31Z</time></trkpt><trkpt lat="49.086795707370236" lon="7.91101415217925"><ele>546.0</ele><time>2026-05-01T14:44:34Z</time></trkpt><trkpt lat="49.08675639348475" lon="7.910909101384692"><ele>546.0</ele><time>2026-05-01T14:44:37Z</time></trkpt><trkpt lat="49.08669660934009" lon="7.910834555909341"><ele>546.0</ele><time>2026-05-01T14:44:40Z</time></trkpt><trkpt lat="49.08661061933477" lon="7.910838581507198"><ele>546.0</ele><time>2026-05-01T14:44:44Z</time></trkpt><trkpt lat="49.08653482154105" lon="7.910815146241327"><ele>546.0</ele><time>2026-05-01T14:44:47Z</time></trkpt><trkpt lat="49.08645873489734" lon="7.910791600374678"><ele>546.0</ele><time>2026-05-01T14:44:50Z</time></trkpt><trkpt lat="49.08637132188639" lon="7.910815949614801"><ele>544.5</ele><time>2026-05-01T14:44:53Z</time></trkpt><trkpt lat="49.086296568475404" lon="7.910824210554209"><ele>543.0</ele><time>2026-05-01T14:44:55Z</time></trkpt><trkpt lat="49.08622270570463" lon="7.910818624809332"><ele>541.5</ele><time>2026-05-01T14:44:57Z</time></trkpt><trkpt lat="49.0861431150001" lon="7.910821484369509"><ele>540.0</ele><time>2026-05-01T14:44:59Z</time></trkpt><trkpt lat="49.08605359777378" lon="7.910819740497345"><ele>538.5</ele><time>2026-05-01T14:45:01Z</time></trkpt><trkpt lat="49.085978013126166" lon="7.910823444014882"><ele>537.0</ele><time>2026-05-01T14:45:03Z</time></trkpt><trkpt lat="49.08590272496938" lon="7.910830572271864"><ele>537.0</ele><time>2026-05-01T14:45:05Z</time></trkpt><trkpt lat="49.085827449652896" lon="7.91082418190813"><ele>537.0</ele><time>2026-05-01T14:45:07Z</time></trkpt><trkpt lat="49.08576047759949" lon="7.910828080191809"><ele>537.0</ele><time>2026-05-01T14:45:09Z</time></trkpt><trkpt lat="49.08567759602074" lon="7.910822220553218"><ele>537.0</ele><time>2026-05-01T14:45:12Z</time></trkpt><trkpt lat="49.08560196183729" lon="7.910826629301754"><ele>537.0</ele><time>2026-05-01T14:45:14Z</time></trkpt><trkpt lat="49.0855035366804" lon="7.910863010024621"><ele>537.0</ele><time>2026-05-01T14:45:17Z</time></trkpt><trkpt lat="49.08541337901648" lon="7.9109032814191655"><ele>540.8333333333334</ele><time>2026-05-01T14:45:20Z</time></trkpt><trkpt lat="49.0853470499394" lon="7.910942668973387"><ele>544.6666666666666</ele><time>2026-05-01T14:45:22Z</time></trkpt><trkpt lat="49.085254544183016" lon="7.9109628179134255"><ele>548.5</ele><time>2026-05-01T14:45:25Z</time></trkpt><trkpt lat="49.08518864405451" lon="7.91099366929455"><ele>552.3333333333333</ele><time>2026-05-01T14:45:32Z</time></trkpt><trkpt lat="49.08511361991319" lon="7.910990508031671"><ele>556.1666666666666</ele><time>2026-05-01T14:45:36Z</time></trkpt><trkpt lat="49.08504002784564" lon="7.910942613843077"><ele>560.0</ele><time>2026-05-01T14:47:06Z</time></trkpt><trkpt lat="49.08496051072506" lon="7.910913018045221"><ele>560.3333333333333</ele><time>2026-05-01T14:47:10Z</time></trkpt><trkpt lat="49.08489941098017" lon="7.910889042954723"><ele>560.6666666666666</ele><time>2026-05-01T14:47:12Z</time></trkpt><trkpt lat="49.084841681489344" lon="7.9108449192843215"><ele>561.0</ele><time>2026-05-01T14:47:14Z</time></trkpt><trkpt lat="49.08477502539656" lon="7.910794671443699"><ele>561.3333333333334</ele><time>2026-05-01T14:47:16Z</time></trkpt><trkpt lat="49.08471159074523" lon="7.910709603229095"><ele>561.6666666666667</ele><time>2026-05-01T14:47:18Z</time></trkpt><trkpt lat="49.08465667799263" lon="7.910616594320417"><ele>562.0</ele><time>2026-05-01T14:47:20Z</time></trkpt><trkpt lat="49.084606889054434" lon="7.91051521700476"><ele>562.0</ele><time>2026-05-01T14:47:22Z</time></trkpt><trkpt lat="49.08457115281048" lon="7.910398223739222"><ele>562.0</ele><time>2026-05-01T14:47:24Z</time></trkpt><trkpt lat="49.0845398356412" lon="7.910295390947662"><ele>562.0</ele><time>2026-05-01T14:47:26Z</time></trkpt><trkpt lat="49.0844907846911" lon="7.91019256106082"><ele>562.0</ele><time>2026-05-01T14:47:28Z</time></trkpt><trkpt lat="49.08448939508286" lon="7.910085537673359"><ele>562.0</ele><time>2026-05-01T14:47:30Z</time></trkpt><trkpt lat="49.08442991125248" lon="7.9099704789582885"><ele>562.0</ele><time>2026-05-01T14:47:33Z</time></trkpt><trkpt lat="49.08440212310323" lon="7.909873783513997"><ele>560.6666666666667</ele><time>2026-05-01T14:47:35Z</time></trkpt><trkpt lat="49.08436641869487" lon="7.9097543377882324"><ele>559.3333333333334</ele><time>2026-05-01T14:47:37Z</time></trkpt><trkpt lat="49.08434289769062" lon="7.909628166659756"><ele>558.0</ele><time>2026-05-01T14:47:39Z</time></trkpt><trkpt lat="49.08430933539634" lon="7.909511398657964"><ele>556.6666666666666</ele><time>2026-05-01T14:47:41Z</time></trkpt><trkpt lat="49.084296538026" lon="7.9094139482313"><ele>555.3333333333333</ele><time>2026-05-01T14:47:43Z</time></trkpt><trkpt lat="49.0842582731128" lon="7.909302166721837"><ele>554.0</ele><time>2026-05-01T14:47:46Z</time></trkpt><trkpt lat="49.084233769903335" lon="7.909195810662519"><ele>553.6666666666666</ele><time>2026-05-01T14:47:48Z</time></trkpt><trkpt lat="49.08420234598057" lon="7.909102135636182"><ele>553.3333333333333</ele><time>2026-05-01T14:47:50Z</time></trkpt><trkpt lat="49.08417592826815" lon="7.909007554410325"><ele>553.0</ele><time>2026-05-01T14:47:52Z</time></trkpt><trkpt lat="49.0841451088892" lon="7.90888771237591"><ele>552.6666666666666</ele><time>2026-05-01T14:47:54Z</time></trkpt><trkpt lat="49.08413570117242" lon="7.9087862768338875"><ele>552.3333333333334</ele><time>2026-05-01T14:47:57Z</time></trkpt><trkpt lat="49.08410607135605" lon="7.908679728343101"><ele>552.0</ele><time>2026-05-01T14:47:59Z</time></trkpt><trkpt lat="49.08407202421239" lon="7.9085557353935565"><ele>552.0</ele><time>2026-05-01T14:48:01Z</time></trkpt><trkpt lat="49.084032775508724" lon="7.908421440694568"><ele>552.0</ele><time>2026-05-01T14:48:03Z</time></trkpt><trkpt lat="49.08400914815293" lon="7.90823697294157"><ele>552.0</ele><time>2026-05-01T14:48:05Z</time></trkpt><trkpt lat="49.08397405543654" lon="7.908095121057482"><ele>552.0</ele><time>2026-05-01T14:48:07Z</time></trkpt><trkpt lat="49.08393957957139" lon="7.907974702898548"><ele>552.0</ele><time>2026-05-01T14:48:09Z</time></trkpt><trkpt lat="49.083904859584024" lon="7.907853218963314"><ele>548.6666666666666</ele><time>2026-05-01T14:48:11Z</time></trkpt><trkpt lat="49.08383086134855" lon="7.907777533018053"><ele>545.3333333333334</ele><time>2026-05-01T14:48:13Z</time></trkpt><trkpt lat="49.0837479250052" lon="7.907772527695882"><ele>542.0</ele><time>2026-05-01T14:48:17Z</time></trkpt><trkpt lat="49.08368126519536" lon="7.9077925735269465"><ele>538.6666666666667</ele><time>2026-05-01T14:48:20Z</time></trkpt><trkpt lat="49.08356498037022" lon="7.907871978868051"><ele>535.3333333333334</ele><time>2026-05-01T14:48:23Z</time></trkpt><trkpt lat="49.08350155959808" lon="7.9079098997459365"><ele>532.0</ele><time>2026-05-01T14:48:25Z</time></trkpt><trkpt lat="49.08345332180846" lon="7.907980836242502"><ele>532.0</ele><time>2026-05-01T14:48:27Z</time></trkpt><trkpt lat="49.08337514188541" lon="7.908159828265344"><ele>532.0</ele><time>2026-05-01T14:48:31Z</time></trkpt><trkpt lat="49.083285694034394" lon="7.908190033529467"><ele>532.0</ele><time>2026-05-01T14:48:33Z</time></trkpt><trkpt lat="49.08318770914664" lon="7.908245383734794"><ele>532.0</ele><time>2026-05-01T14:48:35Z</time></trkpt><trkpt lat="49.0831101523079" lon="7.90831283736337"><ele>532.0</ele><time>2026-05-01T14:48:37Z</time></trkpt><trkpt lat="49.08304544366441" lon="7.908345440457444"><ele>531.1666666666667</ele><time>2026-05-01T14:48:38Z</time></trkpt><trkpt lat="49.08298607584336" lon="7.908384809210062"><ele>530.3333333333334</ele><time>2026-05-01T14:48:40Z</time></trkpt><trkpt lat="49.08290930720654" lon="7.908437748123999"><ele>529.5</ele><time>2026-05-01T14:48:42Z</time></trkpt><trkpt lat="49.08281675602596" lon="7.908360239518273"><ele>528.6666666666666</ele><time>2026-05-01T14:48:44Z</time></trkpt><trkpt lat="49.08274758066793" lon="7.908330427232801"><ele>527.8333333333333</ele><time>2026-05-01T14:48:46Z</time></trkpt><trkpt lat="49.082705665161015" lon="7.908415529992308"><ele>527.0</ele><time>2026-05-01T14:48:47Z</time></trkpt><trkpt lat="49.08207630907079" lon="7.908278380982992"><ele>530.1666666666666</ele><time>2026-05-01T14:48:48Z</time></trkpt><trkpt lat="49.08200587159423" lon="7.9082266109820765"><ele>533.3333333333333</ele><time>2026-05-01T14:48:49Z</time></trkpt><trkpt lat="49.081943555483186" lon="7.9081848538098445"><ele>536.5</ele><time>2026-05-01T14:48:50Z</time></trkpt><trkpt lat="49.08186738638584" lon="7.908134283709613"><ele>539.6666666666666</ele><time>2026-05-01T14:48:51Z</time></trkpt><trkpt lat="49.081806633558" lon="7.9080752425162935"><ele>542.8333333333334</ele><time>2026-05-01T14:48:52Z</time></trkpt><trkpt lat="49.08169384073323" lon="7.90799333221842"><ele>546.0</ele><time>2026-05-01T14:48:54Z</time></trkpt><trkpt lat="49.081629647145625" lon="7.90792527809371"><ele>546.0</ele><time>2026-05-01T14:48:55Z</time></trkpt><trkpt lat="49.08156248399961" lon="7.907869279215831"><ele>546.0</ele><time>2026-05-01T14:48:56Z</time></trkpt><trkpt lat="49.081516333981334" lon="7.907783285615613"><ele>546.0</ele><time>2026-05-01T14:48:57Z</time></trkpt><trkpt lat="49.081459090907465" lon="7.907723493614096"><ele>546.0</ele><time>2026-05-01T14:48:58Z</time></trkpt><trkpt lat="49.08139987274389" lon="7.907647134535369"><ele>546.0</ele><time>2026-05-01T14:48:59Z</time></trkpt><trkpt lat="49.08133513953312" lon="7.907592731591163"><ele>546.0</ele><time>2026-05-01T14:49:00Z</time></trkpt><trkpt lat="49.08127009255005" lon="7.907489392255536"><ele>546.0</ele><time>2026-05-01T14:49:01Z</time></trkpt><trkpt lat="49.08122150104286" lon="7.907417165445426"><ele>546.0</ele><time>2026-05-01T14:49:02Z</time></trkpt><trkpt lat="49.08111385316377" lon="7.907285186496824"><ele>546.0</ele><time>2026-05-01T14:49:04Z</time></trkpt><trkpt lat="49.081044897244105" lon="7.9072295195694124"><ele>546.0</ele><time>2026-05-01T14:49:05Z</time></trkpt><trkpt lat="49.08099215643023" lon="7.907137113662555"><ele>546.0</ele><time>2026-05-01T14:49:06Z</time></trkpt><trkpt lat="49.08093372239354" lon="7.907064164647164"><ele>546.0</ele><time>2026-05-01T14:49:07Z</time></trkpt><trkpt lat="49.08088085796715" lon="7.906975782718279"><ele>546.0</ele><time>2026-05-01T14:49:08Z</time></trkpt><trkpt lat="49.08085989222859" lon="7.906854914100197"><ele>546.0</ele><time>2026-05-01T14:49:09Z</time></trkpt><trkpt lat="49.08080708469424" lon="7.906774810829115"><ele>546.0</ele><time>2026-05-01T14:49:10Z</time></trkpt><trkpt lat="49.08074619569889" lon="7.9066913042807"><ele>546.0</ele><time>2026-05-01T14:49:11Z</time></trkpt><trkpt lat="49.08069646823693" lon="7.906601299488873"><ele>546.0</ele><time>2026-05-01T14:49:12Z</time></trkpt><trkpt lat="49.08064679955811" lon="7.906503703085939"><ele>546.0</ele><time>2026-05-01T14:49:13Z</time></trkpt><trkpt lat="49.08059583296519" lon="7.906409952835961"><ele>546.5</ele><time>2026-05-01T14:49:14Z</time></trkpt><trkpt lat="49.08055221294023" lon="7.906315253677823"><ele>547.0</ele><time>2026-05-01T14:49:15Z</time></trkpt><trkpt lat="49.08050186149835" lon="7.906225416506836"><ele>547.5</ele><time>2026-05-01T14:49:16Z</time></trkpt><trkpt lat="49.08045155847562" lon="7.906124913922316"><ele>548.0</ele><time>2026-05-01T14:49:17Z</time></trkpt><trkpt lat="49.08040584286731" lon="7.90602964459677"><ele>548.5</ele><time>2026-05-01T14:49:18Z</time></trkpt><trkpt lat="49.08036400758188" lon="7.90593950272454"><ele>549.0</ele><time>2026-05-01T14:49:19Z</time></trkpt><trkpt lat="49.08031491161643" lon="7.9058402360084825"><ele>547.5</ele><time>2026-05-01T14:49:20Z</time></trkpt><trkpt lat="49.08026813037213" lon="7.905740898513705"><ele>546.0</ele><time>2026-05-01T14:49:21Z</time></trkpt><trkpt lat="49.08022329261893" lon="7.90564175721626"><ele>544.5</ele><time>2026-05-01T14:49:22Z</time></trkpt><trkpt lat="49.08019173268865" lon="7.905556731133541"><ele>543.0</ele><time>2026-05-01T14:49:23Z</time></trkpt><trkpt lat="49.08011973255519" lon="7.9054026742592525"><ele>541.5</ele><time>2026-05-01T14:49:25Z</time></trkpt><trkpt lat="49.08009068538204" lon="7.905310701395781"><ele>540.0</ele><time>2026-05-01T14:49:26Z</time></trkpt><trkpt lat="49.08004216036882" lon="7.905218673897778"><ele>540.0</ele><time>2026-05-01T14:49:27Z</time></trkpt><trkpt lat="49.0800111650115" lon="7.90512037628236"><ele>540.0</ele><time>2026-05-01T14:49:28Z</time></trkpt><trkpt lat="49.0799822441998" lon="7.905022877721896"><ele>540.0</ele><time>2026-05-01T14:49:29Z</time></trkpt><trkpt lat="49.07995096926593" lon="7.904922784799028"><ele>540.0</ele><time>2026-05-01T14:49:30Z</time></trkpt><trkpt lat="49.07991780905736" lon="7.904827131216272"><ele>540.0</ele><time>2026-05-01T14:49:31Z</time></trkpt><trkpt lat="49.0798977138181" lon="7.9047321312606496"><ele>540.0</ele><time>2026-05-01T14:49:32Z</time></trkpt><trkpt lat="49.07984922722122" lon="7.904641217963786"><ele>540.0</ele><time>2026-05-01T14:49:33Z</time></trkpt><trkpt lat="49.07982272601073" lon="7.904541336044783"><ele>540.0</ele><time>2026-05-01T14:49:34Z</time></trkpt><trkpt lat="49.07979206950187" lon="7.9044404538394675"><ele>540.0</ele><time>2026-05-01T14:49:35Z</time></trkpt><trkpt lat="49.07976157030969" lon="7.904339400876804"><ele>540.0</ele><time>2026-05-01T14:49:36Z</time></trkpt><trkpt lat="49.079721375692124" lon="7.9042387854668394"><ele>540.0</ele><time>2026-05-01T14:49:37Z</time></trkpt><trkpt lat="49.07967077451091" lon="7.904040714940456"><ele>540.0</ele><time>2026-05-01T14:49:39Z</time></trkpt><trkpt lat="49.07964359583018" lon="7.903940808896804"><ele>540.0</ele><time>2026-05-01T14:49:40Z</time></trkpt><trkpt lat="49.07962936543869" lon="7.903844209777855"><ele>540.0</ele><time>2026-05-01T14:49:41Z</time></trkpt><trkpt lat="49.07959473582479" lon="7.903669783832602"><ele>540.0</ele><time>2026-05-01T14:49:43Z</time></trkpt><trkpt lat="49.07957248856203" lon="7.90357728784401"><ele>540.0</ele><time>2026-05-01T14:49:44Z</time></trkpt><trkpt lat="49.079539542379784" lon="7.903396201270737"><ele>540.0</ele><time>2026-05-01T14:49:46Z</time></trkpt><trkpt lat="49.07952020776551" lon="7.903298354757016"><ele>540.0</ele><time>2026-05-01T14:49:47Z</time></trkpt><trkpt lat="49.079494627194556" lon="7.903200067582895"><ele>540.0</ele><time>2026-05-01T14:49:48Z</time></trkpt><trkpt lat="49.07947230456764" lon="7.903096914907955"><ele>539.0</ele><time>2026-05-01T14:49:49Z</time></trkpt><trkpt lat="49.07945079850709" lon="7.902990975731143"><ele>538.0</ele><time>2026-05-01T14:49:50Z</time></trkpt><trkpt lat="49.07942791707169" lon="7.902884119198555"><ele>537.0</ele><time>2026-05-01T14:49:51Z</time></trkpt><trkpt lat="49.07939858152175" lon="7.902781327720782"><ele>536.0</ele><time>2026-05-01T14:49:52Z</time></trkpt><trkpt lat="49.079377566277564" lon="7.902676680736026"><ele>535.0</ele><time>2026-05-01T14:49:53Z</time></trkpt><trkpt lat="49.079330317709626" lon="7.902493312407618"><ele>534.0</ele><time>2026-05-01T14:49:55Z</time></trkpt><trkpt lat="49.07928285935107" lon="7.902389451367152"><ele>532.1666666666666</ele><time>2026-05-01T14:49:56Z</time></trkpt><trkpt lat="49.079235012334166" lon="7.902291043811331"><ele>530.3333333333334</ele><time>2026-05-01T14:49:57Z</time></trkpt><trkpt lat="49.0791890227379" lon="7.902195160697319"><ele>528.5</ele><time>2026-05-01T14:49:58Z</time></trkpt><trkpt lat="49.07914106217611" lon="7.9020949982736"><ele>526.6666666666667</ele><time>2026-05-01T14:49:59Z</time></trkpt><trkpt lat="49.07909356100943" lon="7.902016766122648"><ele>524.8333333333334</ele><time>2026-05-01T14:50:00Z</time></trkpt><trkpt lat="49.078982797862935" lon="7.901895106621475"><ele>523.0</ele><time>2026-05-01T14:50:02Z</time></trkpt><trkpt lat="49.078921250244974" lon="7.901856918949431"><ele>521.8333333333334</ele><time>2026-05-01T14:50:03Z</time></trkpt><trkpt lat="49.0788538266481" lon="7.901841153499681"><ele>520.6666666666667</ele><time>2026-05-01T14:50:04Z</time></trkpt><trkpt lat="49.078779826338604" lon="7.901819564501814"><ele>519.5</ele><time>2026-05-01T14:50:05Z</time></trkpt><trkpt lat="49.07870539500092" lon="7.901816633597204"><ele>518.3333333333334</ele><time>2026-05-01T14:50:06Z</time></trkpt><trkpt lat="49.078581670848706" lon="7.9018502273251485"><ele>517.1666666666666</ele><time>2026-05-01T14:50:08Z</time></trkpt><trkpt lat="49.078509087869456" lon="7.9018690407139625"><ele>516.0</ele><time>2026-05-01T14:50:09Z</time></trkpt><trkpt lat="49.078458696390435" lon="7.901936378430876"><ele>515.9999999999999</ele><time>2026-05-01T14:50:10Z</time></trkpt><trkpt lat="49.078399535917406" lon="7.901993514435589"><ele>516.0</ele><time>2026-05-01T14:50:11Z</time></trkpt><trkpt lat="49.078354128934485" lon="7.9020647630213015"><ele>516.0</ele><time>2026-05-01T14:50:12Z</time></trkpt><trkpt lat="49.078299303023016" lon="7.90213845971303"><ele>516.0</ele><time>2026-05-01T14:50:14Z</time></trkpt><trkpt lat="49.07825245465818" lon="7.902227258244912"><ele>516.0</ele><time>2026-05-01T14:50:16Z</time></trkpt><trkpt lat="49.07828914886239" lon="7.902325796731371"><ele>515.9999999999999</ele><time>2026-05-01T14:52:00Z</time></trkpt><trkpt lat="49.07834058743839" lon="7.902234165327353"><ele>516.0</ele><time>2026-05-01T14:52:10Z</time></trkpt><trkpt lat="49.078383190336915" lon="7.902152462518505"><ele>516.0</ele><time>2026-05-01T14:52:13Z</time></trkpt><trkpt lat="49.07843345596693" lon="7.902086910564539"><ele>516.0</ele><time>2026-05-01T14:52:15Z</time></trkpt><trkpt lat="49.07849496483319" lon="7.902003592978021"><ele>516.0</ele><time>2026-05-01T14:52:18Z</time></trkpt><trkpt lat="49.07848269815226" lon="7.901890404779979"><ele>516.0</ele><time>2026-05-01T14:52:21Z</time></trkpt><trkpt lat="49.07841091604217" lon="7.9018410445234295"><ele>516.0</ele><time>2026-05-01T14:52:23Z</time></trkpt><trkpt lat="49.07833806740472" lon="7.901898101687569"><ele>516.0</ele><time>2026-05-01T14:52:25Z</time></trkpt><trkpt lat="49.07827236772169" lon="7.901935560237352"><ele>513.8333333333334</ele><time>2026-05-01T14:52:27Z</time></trkpt><trkpt lat="49.07820222920531" lon="7.902018992384647"><ele>511.66666666666663</ele><time>2026-05-01T14:52:29Z</time></trkpt><trkpt lat="49.078133479387624" lon="7.902148728998711"><ele>509.5</ele><time>2026-05-01T14:52:31Z</time></trkpt><trkpt lat="49.078072266008846" lon="7.9022457723043456"><ele>507.3333333333333</ele><time>2026-05-01T14:52:34Z</time></trkpt><trkpt lat="49.0780115035928" lon="7.90233616069439"><ele>505.16666666666663</ele><time>2026-05-01T14:52:36Z</time></trkpt><trkpt lat="49.07796240022352" lon="7.902423701374339"><ele>503.0</ele><time>2026-05-01T14:52:37Z</time></trkpt><trkpt lat="49.07781357976676" lon="7.902706443877736"><ele>502.99999999999994</ele><time>2026-05-01T14:52:39Z</time></trkpt><trkpt lat="49.07777152806358" lon="7.902787058720904"><ele>503.0</ele><time>2026-05-01T14:52:40Z</time></trkpt><trkpt lat="49.07772804255132" lon="7.902865792899034"><ele>503.0</ele><time>2026-05-01T14:52:41Z</time></trkpt><trkpt lat="49.07768093461317" lon="7.902947883650403"><ele>503.0</ele><time>2026-05-01T14:52:42Z</time></trkpt><trkpt lat="49.07762605234223" lon="7.9030330729315095"><ele>502.99999999999994</ele><time>2026-05-01T14:52:43Z</time></trkpt><trkpt lat="49.077559796814995" lon="7.9031713666574674"><ele>503.0</ele><time>2026-05-01T14:52:45Z</time></trkpt><trkpt lat="49.0775192971681" lon="7.903248075302996"><ele>502.99999999999994</ele><time>2026-05-01T14:52:46Z</time></trkpt><trkpt lat="49.07747009413916" lon="7.903338453166717"><ele>503.0</ele><time>2026-05-01T14:52:47Z</time></trkpt><trkpt lat="49.07742607596352" lon="7.903428384584678"><ele>503.0</ele><time>2026-05-01T14:52:48Z</time></trkpt><trkpt lat="49.077385871266245" lon="7.903535181297652"><ele>503.0</ele><time>2026-05-01T14:52:49Z</time></trkpt><trkpt lat="49.077341119361556" lon="7.903629085438582"><ele>502.99999999999994</ele><time>2026-05-01T14:52:50Z</time></trkpt><trkpt lat="49.077290051554826" lon="7.903732831697486"><ele>503.0</ele><time>2026-05-01T14:52:51Z</time></trkpt><trkpt lat="49.07728480470864" lon="7.903850321532606"><ele>503.99999999999994</ele><time>2026-05-01T14:52:52Z</time></trkpt><trkpt lat="49.0772195799677" lon="7.903934335247558"><ele>505.0</ele><time>2026-05-01T14:52:53Z</time></trkpt><trkpt lat="49.07716019285254" lon="7.903985085366748"><ele>506.0</ele><time>2026-05-01T14:52:54Z</time></trkpt><trkpt lat="49.07709834019259" lon="7.9040434723999615"><ele>507.0</ele><time>2026-05-01T14:52:55Z</time></trkpt><trkpt lat="49.077037592088324" lon="7.904092755873448"><ele>507.99999999999994</ele><time>2026-05-01T14:52:56Z</time></trkpt><trkpt lat="49.07696704305894" lon="7.904142315443914"><ele>509.0</ele><time>2026-05-01T14:52:57Z</time></trkpt><trkpt lat="49.076837267153536" lon="7.904135586100143"><ele>509.0</ele><time>2026-05-01T14:52:59Z</time></trkpt><trkpt lat="49.07671816773255" lon="7.904109771602751"><ele>509.0</ele><time>2026-05-01T14:53:01Z</time></trkpt><trkpt lat="49.07663365657142" lon="7.904077180377158"><ele>509.0</ele><time>2026-05-01T14:53:02Z</time></trkpt><trkpt lat="49.076495586396" lon="7.904037872645626"><ele>509.0</ele><time>2026-05-01T14:53:04Z</time></trkpt><trkpt lat="49.076430072865854" lon="7.903999100119501"><ele>509.0</ele><time>2026-05-01T14:53:05Z</time></trkpt><trkpt lat="49.07635658693003" lon="7.90397835973817"><ele>509.8333333333333</ele><time>2026-05-01T14:53:06Z</time></trkpt><trkpt lat="49.07628144384019" lon="7.903941830460744"><ele>510.66666666666663</ele><time>2026-05-01T14:53:07Z</time></trkpt><trkpt lat="49.07616157761051" lon="7.903869441845418"><ele>511.5</ele><time>2026-05-01T14:53:09Z</time></trkpt><trkpt lat="49.07613533391006" lon="7.9037772642889115"><ele>512.3333333333334</ele><time>2026-05-01T14:53:10Z</time></trkpt><trkpt lat="49.07607174343851" lon="7.903735579680532"><ele>513.1666666666667</ele><time>2026-05-01T14:53:11Z</time></trkpt><trkpt lat="49.07599812220569" lon="7.903690915761545"><ele>514.0</ele><time>2026-05-01T14:53:12Z</time></trkpt><trkpt lat="49.07593105329747" lon="7.903632166682737"><ele>514.0</ele><time>2026-05-01T14:53:13Z</time></trkpt><trkpt lat="49.0758723895898" lon="7.903513716706033"><ele>514.0</ele><time>2026-05-01T14:53:14Z</time></trkpt><trkpt lat="49.0757764155809" lon="7.903443575569296"><ele>514.0</ele><time>2026-05-01T14:53:16Z</time></trkpt><trkpt lat="49.07570980146981" lon="7.903384211934719"><ele>514.0</ele><time>2026-05-01T14:53:17Z</time></trkpt><trkpt lat="49.07564500885135" lon="7.903310288888118"><ele>514.0</ele><time>2026-05-01T14:53:18Z</time></trkpt><trkpt lat="49.07558014558186" lon="7.903245100087244"><ele>514.0</ele><time>2026-05-01T14:53:19Z</time></trkpt><trkpt lat="49.075515240534365" lon="7.903168279374424"><ele>513.1666666666667</ele><time>2026-05-01T14:53:20Z</time></trkpt><trkpt lat="49.07544481997371" lon="7.903098419288268"><ele>512.3333333333334</ele><time>2026-05-01T14:53:21Z</time></trkpt><trkpt lat="49.07538970014637" lon="7.903039865563328"><ele>511.5</ele><time>2026-05-01T14:53:22Z</time></trkpt><trkpt lat="49.0753215168557" lon="7.902974533878875"><ele>510.66666666666663</ele><time>2026-05-01T14:53:23Z</time></trkpt><trkpt lat="49.075244992974035" lon="7.902910433656363"><ele>509.8333333333333</ele><time>2026-05-01T14:53:24Z</time></trkpt><trkpt lat="49.075169550843896" lon="7.902861770430624"><ele>509.0</ele><time>2026-05-01T14:53:25Z</time></trkpt><trkpt lat="49.07509753622867" lon="7.902807555371005"><ele>508.99999999999994</ele><time>2026-05-01T14:53:26Z</time></trkpt><trkpt lat="49.075028511193665" lon="7.90277722913842"><ele>509.0</ele><time>2026-05-01T14:53:27Z</time></trkpt><trkpt lat="49.07496611028756" lon="7.902719721728107"><ele>508.99999999999994</ele><time>2026-05-01T14:53:28Z</time></trkpt><trkpt lat="49.07489377322127" lon="7.902688820145181"><ele>508.99999999999994</ele><time>2026-05-01T14:53:29Z</time></trkpt><trkpt lat="49.07482200013574" lon="7.90267273957647"><ele>509.0</ele><time>2026-05-01T14:53:30Z</time></trkpt><trkpt lat="49.07474650867297" lon="7.902666524061265"><ele>508.99999999999994</ele><time>2026-05-01T14:53:31Z</time></trkpt><trkpt lat="49.074672853875235" lon="7.902672439236767"><ele>508.99999999999994</ele><time>2026-05-01T14:53:32Z</time></trkpt><trkpt lat="49.074601551103626" lon="7.902668217321083"><ele>508.5</ele><time>2026-05-01T14:53:33Z</time></trkpt><trkpt lat="49.07446876582555" lon="7.902661166923113"><ele>508.0</ele><time>2026-05-01T14:53:35Z</time></trkpt><trkpt lat="49.074344814672514" lon="7.902657980400935"><ele>507.5</ele><time>2026-05-01T14:53:37Z</time></trkpt><trkpt lat="49.07422446183992" lon="7.902637417800364"><ele>507.0</ele><time>2026-05-01T14:53:39Z</time></trkpt><trkpt lat="49.07410897750066" lon="7.9026153850915914"><ele>506.6</ele><time>2026-05-01T14:53:41Z</time></trkpt><trkpt lat="49.07399832126377" lon="7.902599449401398"><ele>506.20000000000005</ele><time>2026-05-01T14:53:43Z</time></trkpt><trkpt lat="49.0738863639622" lon="7.902564726652265"><ele>505.8</ele><time>2026-05-01T14:53:45Z</time></trkpt><trkpt lat="49.07378201084961" lon="7.9025388426664"><ele>505.4</ele><time>2026-05-01T14:53:47Z</time></trkpt><trkpt lat="49.07367158799184" lon="7.902518667784647"><ele>505.0</ele><time>2026-05-01T14:53:49Z</time></trkpt><trkpt lat="49.07360168741133" lon="7.902484681263331"><ele>503.0</ele><time>2026-05-01T14:53:52Z</time></trkpt><trkpt lat="49.07351323323854" lon="7.902468822948234"><ele>501.0</ele><time>2026-05-01T14:53:53Z</time></trkpt><trkpt lat="49.073407293946225" lon="7.902475887118947"><ele>499.0</ele><time>2026-05-01T14:53:55Z</time></trkpt><trkpt lat="49.073332801184904" lon="7.902488590591116"><ele>497.0</ele><time>2026-05-01T14:53:56Z</time></trkpt><trkpt lat="49.07325199359302" lon="7.902506261517096"><ele>495.0</ele><time>2026-05-01T14:53:58Z</time></trkpt><trkpt lat="49.07315536528828" lon="7.902543789249116"><ele>493.8</ele><time>2026-05-01T14:54:00Z</time></trkpt><trkpt lat="49.07305488004642" lon="7.902558283233798"><ele>492.6</ele><time>2026-05-01T14:54:01Z</time></trkpt><trkpt lat="49.07297189705606" lon="7.902593404644427"><ele>491.4</ele><time>2026-05-01T14:54:03Z</time></trkpt><trkpt lat="49.07288331719196" lon="7.902649031927384"><ele>490.2</ele><time>2026-05-01T14:54:05Z</time></trkpt><trkpt lat="49.07280528475399" lon="7.902704704981392"><ele>489.0</ele><time>2026-05-01T14:54:07Z</time></trkpt><trkpt lat="49.07271261034104" lon="7.902770187970039"><ele>490.6666666666667</ele><time>2026-05-01T14:54:09Z</time></trkpt><trkpt lat="49.07263317957285" lon="7.902832782989648"><ele>492.33333333333337</ele><time>2026-05-01T14:54:11Z</time></trkpt><trkpt lat="49.072540087677034" lon="7.902884124716385"><ele>494.0</ele><time>2026-05-01T14:54:13Z</time></trkpt><trkpt lat="49.0724559255506" lon="7.902903845789641"><ele>495.6666666666667</ele><time>2026-05-01T14:54:15Z</time></trkpt><trkpt lat="49.072365470404385" lon="7.902906706365693"><ele>497.33333333333337</ele><time>2026-05-01T14:54:17Z</time></trkpt><trkpt lat="49.07228180080533" lon="7.902908044056035"><ele>499.0</ele><time>2026-05-01T14:54:19Z</time></trkpt><trkpt lat="49.072203523660924" lon="7.902852569005235"><ele>499.00000000000006</ele><time>2026-05-01T14:54:22Z</time></trkpt><trkpt lat="49.072140732299026" lon="7.9028595129812125"><ele>499.0</ele><time>2026-05-01T14:54:24Z</time></trkpt><trkpt lat="49.07205461842741" lon="7.902871264071194"><ele>499.0</ele><time>2026-05-01T14:54:27Z</time></trkpt><trkpt lat="49.07196501218155" lon="7.9028929473466265"><ele>499.0</ele><time>2026-05-01T14:54:30Z</time></trkpt><trkpt lat="49.07189967867488" lon="7.902872718202813"><ele>499.00000000000006</ele><time>2026-05-01T14:54:32Z</time></trkpt><trkpt lat="49.07182539735472" lon="7.902824387601519"><ele>499.0</ele><time>2026-05-01T14:54:35Z</time></trkpt><trkpt lat="49.07175962153771" lon="7.902799350743371"><ele>499.0</ele><time>2026-05-01T14:54:37Z</time></trkpt><trkpt lat="49.07170213497369" lon="7.902736722151258"><ele>499.0</ele><time>2026-05-01T14:54:39Z</time></trkpt><trkpt lat="49.07166102544447" lon="7.902608064605002"><ele>499.0</ele><time>2026-05-01T14:54:42Z</time></trkpt><trkpt lat="49.07133804451388" lon="7.902506323828248"><ele>498.57142857142867</ele><time>2026-05-01T14:54:43Z</time></trkpt><trkpt lat="49.07127243332634" lon="7.902372380370135"><ele>498.14285714285717</ele><time>2026-05-01T14:54:45Z</time></trkpt><trkpt lat="49.07122998450869" lon="7.902289304737503"><ele>497.7142857142858</ele><time>2026-05-01T14:54:46Z</time></trkpt><trkpt lat="49.07118763371939" lon="7.902215469132875"><ele>497.28571428571433</ele><time>2026-05-01T14:54:47Z</time></trkpt><trkpt lat="49.071143026658504" lon="7.902142765869321"><ele>496.8571428571429</ele><time>2026-05-01T14:54:48Z</time></trkpt><trkpt lat="49.071098195113734" lon="7.902070411280423"><ele>496.42857142857144</ele><time>2026-05-01T14:54:49Z</time></trkpt><trkpt lat="49.07105240257774" lon="7.9019945658621"><ele>496.0</ele><time>2026-05-01T14:54:50Z</time></trkpt><trkpt lat="49.07099923942132" lon="7.901900067658055"><ele>496.00000000000006</ele><time>2026-05-01T14:54:51Z</time></trkpt><trkpt lat="49.070954128402825" lon="7.901823861331267"><ele>496.0</ele><time>2026-05-01T14:54:52Z</time></trkpt><trkpt lat="49.07090371935114" lon="7.901725502712804"><ele>496.0</ele><time>2026-05-01T14:54:53Z</time></trkpt><trkpt lat="49.070833152799736" lon="7.901561770484608"><ele>496.0</ele><time>2026-05-01T14:54:55Z</time></trkpt><trkpt lat="49.07079490971705" lon="7.901467899475222"><ele>496.00000000000006</ele><time>2026-05-01T14:54:56Z</time></trkpt><trkpt lat="49.070749447008" lon="7.901345999390455"><ele>496.0</ele><time>2026-05-01T14:54:57Z</time></trkpt><trkpt lat="49.07070862201282" lon="7.901253619600622"><ele>498.14285714285717</ele><time>2026-05-01T14:54:58Z</time></trkpt><trkpt lat="49.07067472532333" lon="7.901164014501187"><ele>500.28571428571433</ele><time>2026-05-01T14:54:59Z</time></trkpt><trkpt lat="49.070642007531724" lon="7.901068621064015"><ele>502.42857142857144</ele><time>2026-05-01T14:55:00Z</time></trkpt><trkpt lat="49.07060464368014" lon="7.900970734016408"><ele>504.57142857142856</ele><time>2026-05-01T14:55:01Z</time></trkpt><trkpt lat="49.07057859894495" lon="7.900873336190678"><ele>506.7142857142857</ele><time>2026-05-01T14:55:02Z</time></trkpt><trkpt lat="49.07055147742412" lon="7.90076814292793"><ele>508.8571428571429</ele><time>2026-05-01T14:55:03Z</time></trkpt><trkpt lat="49.070518505369456" lon="7.900672653278039"><ele>511.0</ele><time>2026-05-01T14:55:04Z</time></trkpt><trkpt lat="49.0704598651505" lon="7.900552624698681"><ele>511.00000000000006</ele><time>2026-05-01T14:55:05Z</time></trkpt><trkpt lat="49.07042183855066" lon="7.9004554693957205"><ele>511.0</ele><time>2026-05-01T14:55:06Z</time></trkpt><trkpt lat="49.07038946413924" lon="7.900336727925939"><ele>511.0</ele><time>2026-05-01T14:55:07Z</time></trkpt><trkpt lat="49.07036330879831" lon="7.900223363993759"><ele>511.0</ele><time>2026-05-01T14:55:08Z</time></trkpt><trkpt lat="49.07033626619665" lon="7.900112367459704"><ele>511.00000000000006</ele><time>2026-05-01T14:55:09Z</time></trkpt><trkpt lat="49.07030495588034" lon="7.899998981528645"><ele>511.0</ele><time>2026-05-01T14:55:10Z</time></trkpt><trkpt lat="49.07029067189119" lon="7.8998768120892455"><ele>509.83333333333337</ele><time>2026-05-01T14:55:11Z</time></trkpt><trkpt lat="49.07026204740373" lon="7.8997615320601104"><ele>508.6666666666667</ele><time>2026-05-01T14:55:12Z</time></trkpt><trkpt lat="49.070249032988706" lon="7.8996433265730435"><ele>507.5</ele><time>2026-05-01T14:55:13Z</time></trkpt><trkpt lat="49.070222133482204" lon="7.899511795093451"><ele>506.33333333333337</ele><time>2026-05-01T14:55:14Z</time></trkpt><trkpt lat="49.07021430755733" lon="7.899400126587369"><ele>505.1666666666667</ele><time>2026-05-01T14:55:15Z</time></trkpt><trkpt lat="49.07019530781608" lon="7.899281069647403"><ele>504.0</ele><time>2026-05-01T14:55:16Z</time></trkpt><trkpt lat="49.07017475274124" lon="7.899157152187424"><ele>502.5</ele><time>2026-05-01T14:55:17Z</time></trkpt><trkpt lat="49.0701614296221" lon="7.8990332652332285"><ele>501.0</ele><time>2026-05-01T14:55:18Z</time></trkpt><trkpt lat="49.07013896829138" lon="7.898901059866976"><ele>499.5</ele><time>2026-05-01T14:55:19Z</time></trkpt><trkpt lat="49.07011698296232" lon="7.898776222921716"><ele>498.0</ele><time>2026-05-01T14:55:20Z</time></trkpt><trkpt lat="49.07009489079382" lon="7.898663894731846"><ele>496.5</ele><time>2026-05-01T14:55:21Z</time></trkpt><trkpt lat="49.070069908042804" lon="7.898549670325714"><ele>495.0</ele><time>2026-05-01T14:55:22Z</time></trkpt><trkpt lat="49.07004157976779" lon="7.898428265662565"><ele>493.5</ele><time>2026-05-01T14:55:23Z</time></trkpt><trkpt lat="49.07001250245687" lon="7.898310891028698"><ele>492.0</ele><time>2026-05-01T14:55:24Z</time></trkpt><trkpt lat="49.069982929196215" lon="7.898197660036673"><ele>490.5</ele><time>2026-05-01T14:55:25Z</time></trkpt><trkpt lat="49.069950747551495" lon="7.898080001651463"><ele>489.0</ele><time>2026-05-01T14:55:26Z</time></trkpt><trkpt lat="49.06991740901676" lon="7.897967526151623"><ele>487.5</ele><time>2026-05-01T14:55:27Z</time></trkpt><trkpt lat="49.06988329708348" lon="7.897851437736545"><ele>486.0</ele><time>2026-05-01T14:55:28Z</time></trkpt><trkpt lat="49.06984825127571" lon="7.8977321711198165"><ele>487.3333333333333</ele><time>2026-05-01T14:55:29Z</time></trkpt><trkpt lat="49.069812816385515" lon="7.897610327621045"><ele>488.66666666666663</ele><time>2026-05-01T14:55:30Z</time></trkpt><trkpt lat="49.0697805473215" lon="7.897499854323131"><ele>490.0</ele><time>2026-05-01T14:55:31Z</time></trkpt><trkpt lat="49.069743646127435" lon="7.897377288677608"><ele>491.3333333333333</ele><time>2026-05-01T14:55:32Z</time></trkpt><trkpt lat="49.069707745859446" lon="7.897256876408233"><ele>492.66666666666663</ele><time>2026-05-01T14:55:33Z</time></trkpt><trkpt lat="49.06967010155978" lon="7.897148052075916"><ele>494.0</ele><time>2026-05-01T14:55:34Z</time></trkpt><trkpt lat="49.06962771043382" lon="7.897037047327586"><ele>493.99999999999994</ele><time>2026-05-01T14:55:35Z</time></trkpt><trkpt lat="49.06957932112947" lon="7.896926083482038"><ele>494.0</ele><time>2026-05-01T14:55:36Z</time></trkpt><trkpt lat="49.06952077022842" lon="7.896820208727276"><ele>494.0</ele><time>2026-05-01T14:55:37Z</time></trkpt><trkpt lat="49.06946375077436" lon="7.896729956447454"><ele>494.0</ele><time>2026-05-01T14:55:38Z</time></trkpt><trkpt lat="49.069405340379" lon="7.8966462994130255"><ele>493.99999999999994</ele><time>2026-05-01T14:55:39Z</time></trkpt><trkpt lat="49.06934299548291" lon="7.896564895726505"><ele>494.0</ele><time>2026-05-01T14:55:40Z</time></trkpt><trkpt lat="49.069274198596716" lon="7.8964856680631215"><ele>492.3333333333333</ele><time>2026-05-01T14:55:41Z</time></trkpt><trkpt lat="49.069196124625314" lon="7.896406879166404"><ele>490.66666666666663</ele><time>2026-05-01T14:55:42Z</time></trkpt><trkpt lat="49.06912282220277" lon="7.896352617232558"><ele>489.0</ele><time>2026-05-01T14:55:43Z</time></trkpt><trkpt lat="49.06904974964619" lon="7.896273811385866"><ele>487.33333333333337</ele><time>2026-05-01T14:55:44Z</time></trkpt><trkpt lat="49.068982665995804" lon="7.89622222666395"><ele>485.6666666666667</ele><time>2026-05-01T14:55:45Z</time></trkpt><trkpt lat="49.06890940098103" lon="7.896169541574291"><ele>484.0</ele><time>2026-05-01T14:55:46Z</time></trkpt><trkpt lat="49.06884284246892" lon="7.896126037870382"><ele>484.00000000000006</ele><time>2026-05-01T14:55:47Z</time></trkpt><trkpt lat="49.06876700753219" lon="7.896087327746881"><ele>484.0</ele><time>2026-05-01T14:55:48Z</time></trkpt><trkpt lat="49.06868595206451" lon="7.896052533962627"><ele>484.0</ele><time>2026-05-01T14:55:49Z</time></trkpt><trkpt lat="49.06861612936241" lon="7.896022705962251"><ele>484.0</ele><time>2026-05-01T14:55:50Z</time></trkpt><trkpt lat="49.06854561718895" lon="7.895993180647561"><ele>484.00000000000006</ele><time>2026-05-01T14:55:51Z</time></trkpt><trkpt lat="49.06848151035461" lon="7.8959693891192195"><ele>484.0</ele><time>2026-05-01T14:55:52Z</time></trkpt><trkpt lat="49.06840635194059" lon="7.895942895105175"><ele>482.1666666666667</ele><time>2026-05-01T14:55:53Z</time></trkpt><trkpt lat="49.068329390749746" lon="7.895916907280131"><ele>480.33333333333337</ele><time>2026-05-01T14:55:54Z</time></trkpt><trkpt lat="49.068255844889066" lon="7.895893384184355"><ele>478.5</ele><time>2026-05-01T14:55:55Z</time></trkpt><trkpt lat="49.068170853045835" lon="7.895865865617708"><ele>476.66666666666663</ele><time>2026-05-01T14:55:56Z</time></trkpt><trkpt lat="49.068106059262604" lon="7.895844293840126"><ele>474.8333333333333</ele><time>2026-05-01T14:55:57Z</time></trkpt><trkpt lat="49.0679980170191" lon="7.895807079836256"><ele>473.0</ele><time>2026-05-01T14:55:58Z</time></trkpt><trkpt lat="49.06789138600598" lon="7.895764969396619"><ele>473.0</ele><time>2026-05-01T14:56:00Z</time></trkpt><trkpt lat="49.06782928814419" lon="7.895726238422978"><ele>473.0</ele><time>2026-05-01T14:56:01Z</time></trkpt><trkpt lat="49.06775733237571" lon="7.895694859022341"><ele>473.0</ele><time>2026-05-01T14:56:02Z</time></trkpt><trkpt lat="49.067686045293414" lon="7.8956565311027544"><ele>473.0</ele><time>2026-05-01T14:56:03Z</time></trkpt><trkpt lat="49.06761463744625" lon="7.895618171232997"><ele>473.0</ele><time>2026-05-01T14:56:04Z</time></trkpt><trkpt lat="49.06754907269429" lon="7.8955817143354174"><ele>473.0</ele><time>2026-05-01T14:56:05Z</time></trkpt><trkpt lat="49.06747925791956" lon="7.8955418927695655"><ele>473.0</ele><time>2026-05-01T14:56:06Z</time></trkpt><trkpt lat="49.067413906495595" lon="7.895502337917185"><ele>471.66666666666663</ele><time>2026-05-01T14:56:07Z</time></trkpt><trkpt lat="49.067341775615255" lon="7.8954545678785655"><ele>470.3333333333333</ele><time>2026-05-01T14:56:08Z</time></trkpt><trkpt lat="49.06727852982574" lon="7.89541124566695"><ele>469.0</ele><time>2026-05-01T14:56:09Z</time></trkpt><trkpt lat="49.067213231882995" lon="7.89535982045686"><ele>467.66666666666663</ele><time>2026-05-01T14:56:10Z</time></trkpt><trkpt lat="49.067139726617384" lon="7.895310319790799"><ele>466.3333333333333</ele><time>2026-05-01T14:56:11Z</time></trkpt><trkpt lat="49.06707644879435" lon="7.895253610024538"><ele>465.0</ele><time>2026-05-01T14:56:12Z</time></trkpt><trkpt lat="49.06701478962086" lon="7.895188114150376"><ele>465.0</ele><time>2026-05-01T14:56:13Z</time></trkpt><trkpt lat="49.06695903311941" lon="7.895125703652371"><ele>465.0</ele><time>2026-05-01T14:56:14Z</time></trkpt><trkpt lat="49.06690175980191" lon="7.895055924774364"><ele>465.0</ele><time>2026-05-01T14:56:15Z</time></trkpt><trkpt lat="49.06685129628031" lon="7.894978159423739"><ele>465.0</ele><time>2026-05-01T14:56:16Z</time></trkpt><trkpt lat="49.06680237204616" lon="7.894903158084995"><ele>465.0</ele><time>2026-05-01T14:56:17Z</time></trkpt><trkpt lat="49.06674998166159" lon="7.894827948083707"><ele>465.0</ele><time>2026-05-01T14:56:18Z</time></trkpt><trkpt lat="49.06670386268134" lon="7.894758191910693"><ele>465.0</ele><time>2026-05-01T14:56:19Z</time></trkpt><trkpt lat="49.06667794385135" lon="7.894661805586372"><ele>464.6</ele><time>2026-05-01T14:56:20Z</time></trkpt><trkpt lat="49.06660000504949" lon="7.894533866428289"><ele>464.2</ele><time>2026-05-01T14:56:22Z</time></trkpt><trkpt lat="49.06652626739642" lon="7.894396502613249"><ele>463.79999999999995</ele><time>2026-05-01T14:56:24Z</time></trkpt><trkpt lat="49.066480613497" lon="7.894324258108656"><ele>463.4</ele><time>2026-05-01T14:56:25Z</time></trkpt><trkpt lat="49.06639976250876" lon="7.8941981497770115"><ele>463.0</ele><time>2026-05-01T14:56:27Z</time></trkpt><trkpt lat="49.06632004954395" lon="7.894083214735182"><ele>463.0</ele><time>2026-05-01T14:56:29Z</time></trkpt><trkpt lat="49.066245718058866" lon="7.89396953530819"><ele>462.99999999999994</ele><time>2026-05-01T14:56:31Z</time></trkpt><trkpt lat="49.06616803640859" lon="7.893862230030902"><ele>462.99999999999994</ele><time>2026-05-01T14:56:33Z</time></trkpt><trkpt lat="49.06611030646558" lon="7.893777011779992"><ele>463.0</ele><time>2026-05-01T14:56:35Z</time></trkpt><trkpt lat="49.066031785441865" lon="7.893680245989561"><ele>463.0</ele><time>2026-05-01T14:56:37Z</time></trkpt><trkpt lat="49.06594636268511" lon="7.893613845019246"><ele>463.00000000000006</ele><time>2026-05-01T14:56:39Z</time></trkpt><trkpt lat="49.065859783714366" lon="7.893605299379846"><ele>463.0</ele><time>2026-05-01T14:56:41Z</time></trkpt><trkpt lat="49.065792571691055" lon="7.893649750075154"><ele>463.0</ele><time>2026-05-01T14:56:44Z</time></trkpt><trkpt lat="49.06572338289551" lon="7.893697959663837"><ele>463.0</ele><time>2026-05-01T14:56:46Z</time></trkpt><trkpt lat="49.06567210466997" lon="7.893785803075591"><ele>463.00000000000006</ele><time>2026-05-01T14:56:49Z</time></trkpt><trkpt lat="49.0656567837101" lon="7.8938796703164975"><ele>463.0</ele><time>2026-05-01T14:56:50Z</time></trkpt><trkpt lat="49.06565179259549" lon="7.894007067624223"><ele>462.59999999999997</ele><time>2026-05-01T14:56:51Z</time></trkpt><trkpt lat="49.06566791877478" lon="7.894105285724433"><ele>462.19999999999993</ele><time>2026-05-01T14:56:52Z</time></trkpt><trkpt lat="49.06568564394666" lon="7.894218112404945"><ele>461.8</ele><time>2026-05-01T14:56:53Z</time></trkpt><trkpt lat="49.06570125180422" lon="7.8943821505940495"><ele>461.4</ele><time>2026-05-01T14:56:55Z</time></trkpt><trkpt lat="49.06574837315433" lon="7.894568152584835"><ele>461.0</ele><time>2026-05-01T14:56:57Z</time></trkpt><trkpt lat="49.06579430256551" lon="7.894657837825907"><ele>461.0</ele><time>2026-05-01T14:56:58Z</time></trkpt><trkpt lat="49.06582706346904" lon="7.894747323679559"><ele>461.00000000000006</ele><time>2026-05-01T14:56:59Z</time></trkpt><trkpt lat="49.065860283831746" lon="7.894852268312353"><ele>461.0</ele><time>2026-05-01T14:57:00Z</time></trkpt><trkpt lat="49.06589564705005" lon="7.8949484487277015"><ele>461.0</ele><time>2026-05-01T14:57:01Z</time></trkpt><trkpt lat="49.06593692953836" lon="7.895053060269371"><ele>461.00000000000006</ele><time>2026-05-01T14:57:02Z</time></trkpt><trkpt lat="49.06597619152321" lon="7.895140925367258"><ele>461.0</ele><time>2026-05-01T14:57:03Z</time></trkpt><trkpt lat="49.06602574756868" lon="7.895239132705016"><ele>461.0</ele><time>2026-05-01T14:57:04Z</time></trkpt><trkpt lat="49.06607538316289" lon="7.895331101997802"><ele>458.16666666666663</ele><time>2026-05-01T14:57:05Z</time></trkpt><trkpt lat="49.06611035471356" lon="7.895426297320558"><ele>455.3333333333333</ele><time>2026-05-01T14:57:06Z</time></trkpt><trkpt lat="49.06614650319533" lon="7.895508475929259"><ele>452.5</ele><time>2026-05-01T14:57:07Z</time></trkpt><trkpt lat="49.06620042768512" lon="7.895584539664"><ele>449.66666666666663</ele><time>2026-05-01T14:57:08Z</time></trkpt><trkpt lat="49.06623384462823" lon="7.895720188567015"><ele>446.8333333333333</ele><time>2026-05-01T14:57:09Z</time></trkpt><trkpt lat="49.06628023654582" lon="7.895829205920299"><ele>444.0</ele><time>2026-05-01T14:57:10Z</time></trkpt><trkpt lat="49.066328678289956" lon="7.895945370058286"><ele>442.0</ele><time>2026-05-01T14:57:11Z</time></trkpt><trkpt lat="49.06638256862579" lon="7.896052667731976"><ele>440.0</ele><time>2026-05-01T14:57:12Z</time></trkpt><trkpt lat="49.066413354976255" lon="7.896141479317216"><ele>438.0</ele><time>2026-05-01T14:57:13Z</time></trkpt><trkpt lat="49.06645716778271" lon="7.896300236293791"><ele>436.0</ele><time>2026-05-01T14:57:15Z</time></trkpt><trkpt lat="49.06647210043467" lon="7.8964017441795935"><ele>434.0</ele><time>2026-05-01T14:57:16Z</time></trkpt><trkpt lat="49.066487019285674" lon="7.896505066934944"><ele>432.0</ele><time>2026-05-01T14:57:17Z</time></trkpt><trkpt lat="49.06650681076214" lon="7.896600814201375"><ele>432.0</ele><time>2026-05-01T14:57:18Z</time></trkpt><trkpt lat="49.06650801541014" lon="7.896733773865645"><ele>432.00000000000006</ele><time>2026-05-01T14:57:19Z</time></trkpt><trkpt lat="49.06650234488487" lon="7.89687028209621"><ele>432.00000000000006</ele><time>2026-05-01T14:57:20Z</time></trkpt><trkpt lat="49.066507609237476" lon="7.897022860101033"><ele>432.0</ele><time>2026-05-01T14:57:21Z</time></trkpt><trkpt lat="49.06650870112997" lon="7.897158798644088"><ele>432.0</ele><time>2026-05-01T14:57:22Z</time></trkpt><trkpt lat="49.06649951676623" lon="7.897289557164764"><ele>430.20000000000005</ele><time>2026-05-01T14:57:23Z</time></trkpt><trkpt lat="49.06649129669993" lon="7.897419058678161"><ele>428.40000000000003</ele><time>2026-05-01T14:57:24Z</time></trkpt><trkpt lat="49.066488512753786" lon="7.897568936956818"><ele>426.6</ele><time>2026-05-01T14:57:25Z</time></trkpt><trkpt lat="49.06647166613594" lon="7.897703577667077"><ele>424.79999999999995</ele><time>2026-05-01T14:57:26Z</time></trkpt><trkpt lat="49.06645513035285" lon="7.897842941499547"><ele>423.0</ele><time>2026-05-01T14:57:27Z</time></trkpt><trkpt lat="49.066443694530584" lon="7.89799693477637"><ele>423.1428571428571</ele><time>2026-05-01T14:57:28Z</time></trkpt><trkpt lat="49.06643421194699" lon="7.898121572468529"><ele>423.28571428571433</ele><time>2026-05-01T14:57:29Z</time></trkpt><trkpt lat="49.06642546224089" lon="7.8982220648063"><ele>423.42857142857144</ele><time>2026-05-01T14:57:30Z</time></trkpt><trkpt lat="49.06641697297832" lon="7.89831956578292"><ele>423.57142857142856</ele><time>2026-05-01T14:57:31Z</time></trkpt><trkpt lat="49.06640737468576" lon="7.898429643470314"><ele>423.71428571428567</ele><time>2026-05-01T14:57:32Z</time></trkpt><trkpt lat="49.06639845767593" lon="7.898531754051901"><ele>423.8571428571429</ele><time>2026-05-01T14:57:33Z</time></trkpt><trkpt lat="49.06639192497281" lon="7.898653681566097"><ele>424.0</ele><time>2026-05-01T14:57:34Z</time></trkpt><trkpt lat="49.06639701462379" lon="7.898778893555992"><ele>424.00000000000006</ele><time>2026-05-01T14:57:35Z</time></trkpt><trkpt lat="49.06639567712004" lon="7.898896845975435"><ele>424.0</ele><time>2026-05-01T14:57:36Z</time></trkpt><trkpt lat="49.06638073789439" lon="7.899034790137748"><ele>424.0</ele><time>2026-05-01T14:57:37Z</time></trkpt><trkpt lat="49.066388168588446" lon="7.899155122439799"><ele>424.0</ele><time>2026-05-01T14:57:38Z</time></trkpt><trkpt lat="49.066382297145196" lon="7.899280331000432"><ele>424.00000000000006</ele><time>2026-05-01T14:57:39Z</time></trkpt><trkpt lat="49.06637965698019" lon="7.899426883878784"><ele>424.0</ele><time>2026-05-01T14:57:40Z</time></trkpt><trkpt lat="49.06638551265006" lon="7.899558561040265"><ele>425.1666666666667</ele><time>2026-05-01T14:57:41Z</time></trkpt><trkpt lat="49.06636875930694" lon="7.899686723499164"><ele>426.33333333333337</ele><time>2026-05-01T14:57:42Z</time></trkpt><trkpt lat="49.06633879712476" lon="7.899831161018795"><ele>427.5</ele><time>2026-05-01T14:57:43Z</time></trkpt><trkpt lat="49.066314427061585" lon="7.899956582743924"><ele>428.66666666666663</ele><time>2026-05-01T14:57:44Z</time></trkpt><trkpt lat="49.066263283866334" lon="7.900069339230466"><ele>429.8333333333333</ele><time>2026-05-01T14:57:45Z</time></trkpt><trkpt lat="49.0662281791793" lon="7.900192163024191"><ele>431.0</ele><time>2026-05-01T14:57:46Z</time></trkpt><trkpt lat="49.06618995950371" lon="7.900312363164811"><ele>432.3333333333333</ele><time>2026-05-01T14:57:47Z</time></trkpt><trkpt lat="49.0661457619663" lon="7.900445953121568"><ele>433.66666666666663</ele><time>2026-05-01T14:57:48Z</time></trkpt><trkpt lat="49.06609802422039" lon="7.900571746288565"><ele>435.0</ele><time>2026-05-01T14:57:49Z</time></trkpt><trkpt lat="49.06604293260267" lon="7.900685845410375"><ele>436.33333333333337</ele><time>2026-05-01T14:57:50Z</time></trkpt><trkpt lat="49.065980618839504" lon="7.90078648547598"><ele>437.6666666666667</ele><time>2026-05-01T14:57:51Z</time></trkpt><trkpt lat="49.065927965686434" lon="7.900857413625432"><ele>439.0</ele><time>2026-05-01T14:57:52Z</time></trkpt><trkpt lat="49.0658690715343" lon="7.900938878415743"><ele>439.0</ele><time>2026-05-01T14:57:53Z</time></trkpt><trkpt lat="49.065803061266976" lon="7.901000826190553"><ele>439.0</ele><time>2026-05-01T14:57:54Z</time></trkpt><trkpt lat="49.06573670337254" lon="7.901048946160759"><ele>439.0</ele><time>2026-05-01T14:57:55Z</time></trkpt><trkpt lat="49.06567233294761" lon="7.901103376893017"><ele>439.0</ele><time>2026-05-01T14:57:56Z</time></trkpt><trkpt lat="49.065601602116985" lon="7.901142316734039"><ele>439.0</ele><time>2026-05-01T14:57:57Z</time></trkpt><trkpt lat="49.06553430845106" lon="7.901168174440799"><ele>439.0</ele><time>2026-05-01T14:57:58Z</time></trkpt><trkpt lat="49.065468391102044" lon="7.901215500357748"><ele>439.0</ele><time>2026-05-01T14:57:59Z</time></trkpt><trkpt lat="49.06538087822859" lon="7.901295726795435"><ele>439.00000000000006</ele><time>2026-05-01T14:58:01Z</time></trkpt><trkpt lat="49.06536000709881" lon="7.901403377121012"><ele>439.0</ele><time>2026-05-01T14:58:03Z</time></trkpt><trkpt lat="49.065402463120456" lon="7.9015305111859"><ele>439.0</ele><time>2026-05-01T14:58:05Z</time></trkpt><trkpt lat="49.065476336779014" lon="7.901613819661883"><ele>439.0</ele><time>2026-05-01T14:58:08Z</time></trkpt><trkpt lat="49.06556596211494" lon="7.901697394104584"><ele>439.00000000000006</ele><time>2026-05-01T14:58:10Z</time></trkpt><trkpt lat="49.065619344689644" lon="7.901773433543154"><ele>439.0</ele><time>2026-05-01T14:58:12Z</time></trkpt><trkpt lat="49.06568919790202" lon="7.901854231078361"><ele>438.83333333333337</ele><time>2026-05-01T14:58:14Z</time></trkpt><trkpt lat="49.06573168532547" lon="7.901988593401282"><ele>438.6666666666667</ele><time>2026-05-01T14:58:17Z</time></trkpt><trkpt lat="49.06569618244527" lon="7.902083955943381"><ele>438.5</ele><time>2026-05-01T14:58:20Z</time></trkpt><trkpt lat="49.06561756532017" lon="7.902134115300553"><ele>438.33333333333337</ele><time>2026-05-01T14:58:22Z</time></trkpt><trkpt lat="49.06554915670163" lon="7.902193345197709"><ele>438.1666666666667</ele><time>2026-05-01T14:58:24Z</time></trkpt><trkpt lat="49.06560305835332" lon="7.902180921568763"><ele>438.0</ele><time>2026-05-01T15:00:03Z</time></trkpt><trkpt lat="49.06566642037327" lon="7.9021176262365955"><ele>438.0</ele><time>2026-05-01T15:00:06Z</time></trkpt><trkpt lat="49.06572349753481" lon="7.902066283806458"><ele>438.0</ele><time>2026-05-01T15:00:09Z</time></trkpt><trkpt lat="49.06575303458551" lon="7.901965779752791"><ele>438.0</ele><time>2026-05-01T15:00:14Z</time></trkpt><trkpt lat="49.0657115659796" lon="7.901884019266347"><ele>438.0</ele><time>2026-05-01T15:00:46Z</time></trkpt><trkpt lat="49.06568675443706" lon="7.901789426634775"><ele>438.0</ele><time>2026-05-01T15:00:49Z</time></trkpt><trkpt lat="49.065629979441226" lon="7.901717302600585"><ele>438.0</ele><time>2026-05-01T15:00:52Z</time></trkpt><trkpt lat="49.06557006111326" lon="7.901638858496346"><ele>438.0</ele><time>2026-05-01T15:00:55Z</time></trkpt><trkpt lat="49.06552078476997" lon="7.901557287328162"><ele>438.14285714285717</ele><time>2026-05-01T15:00:58Z</time></trkpt><trkpt lat="49.065456340319415" lon="7.901485788620003"><ele>438.2857142857143</ele><time>2026-05-01T15:01:02Z</time></trkpt><trkpt lat="49.065394898664685" lon="7.90144344037505"><ele>438.42857142857144</ele><time>2026-05-01T15:01:06Z</time></trkpt><trkpt lat="49.06533082314637" lon="7.901415837294653"><ele>438.57142857142856</ele><time>2026-05-01T15:01:09Z</time></trkpt><trkpt lat="49.06525594530551" lon="7.901421703026934"><ele>438.71428571428567</ele><time>2026-05-01T15:01:12Z</time></trkpt><trkpt lat="49.065190297718885" lon="7.901460832354701"><ele>438.85714285714283</ele><time>2026-05-01T15:01:14Z</time></trkpt><trkpt lat="49.06511030398431" lon="7.901500032897611"><ele>439.0</ele><time>2026-05-01T15:01:16Z</time></trkpt><trkpt lat="49.06505147624146" lon="7.901539072191623"><ele>439.00000000000006</ele><time>2026-05-01T15:01:18Z</time></trkpt><trkpt lat="49.064981766545735" lon="7.9015863142008405"><ele>439.0</ele><time>2026-05-01T15:01:21Z</time></trkpt><trkpt lat="49.064924429544185" lon="7.901539353600695"><ele>439.0</ele><time>2026-05-01T15:01:24Z</time></trkpt><trkpt lat="49.06485108031432" lon="7.901506633119822"><ele>439.0</ele><time>2026-05-01T15:01:27Z</time></trkpt><trkpt lat="49.06478060190669" lon="7.90152037435445"><ele>439.00000000000006</ele><time>2026-05-01T15:01:30Z</time></trkpt><trkpt lat="49.064713701455624" lon="7.901565766042826"><ele>439.0</ele><time>2026-05-01T15:01:32Z</time></trkpt><trkpt lat="49.06463565110088" lon="7.901669414404145"><ele>439.50000000000006</ele><time>2026-05-01T15:01:35Z</time></trkpt><trkpt lat="49.064581920072435" lon="7.90177662308413"><ele>440.0</ele><time>2026-05-01T15:01:37Z</time></trkpt><trkpt lat="49.064529283461844" lon="7.901841517516063"><ele>440.5</ele><time>2026-05-01T15:01:39Z</time></trkpt><trkpt lat="49.06446854491209" lon="7.901888728648687"><ele>441.0</ele><time>2026-05-01T15:01:42Z</time></trkpt><trkpt lat="49.06440183571431" lon="7.90193087446844"><ele>441.50000000000006</ele><time>2026-05-01T15:01:44Z</time></trkpt><trkpt lat="49.06432516502714" lon="7.901982251021645"><ele>442.0</ele><time>2026-05-01T15:01:46Z</time></trkpt><trkpt lat="49.0642477971779" lon="7.902009015205424"><ele>442.0</ele><time>2026-05-01T15:01:48Z</time></trkpt><trkpt lat="49.064129367124856" lon="7.902066236452987"><ele>442.00000000000006</ele><time>2026-05-01T15:01:50Z</time></trkpt><trkpt lat="49.064023197995844" lon="7.902116598929317"><ele>442.00000000000006</ele><time>2026-05-01T15:01:52Z</time></trkpt><trkpt lat="49.06389860544247" lon="7.902160194906278"><ele>442.0</ele><time>2026-05-01T15:01:54Z</time></trkpt><trkpt lat="49.06383087655618" lon="7.902194519976148"><ele>442.0</ele><time>2026-05-01T15:01:55Z</time></trkpt><trkpt lat="49.0636909505148" lon="7.902210958437885"><ele>440.50000000000006</ele><time>2026-05-01T15:01:57Z</time></trkpt><trkpt lat="49.0635975035333" lon="7.9022143134664296"><ele>439.0</ele><time>2026-05-01T15:01:59Z</time></trkpt><trkpt lat="49.06351832239696" lon="7.902337086102984"><ele>437.5</ele><time>2026-05-01T15:02:01Z</time></trkpt><trkpt lat="49.06343928945291" lon="7.902403159184104"><ele>436.0</ele><time>2026-05-01T15:02:04Z</time></trkpt><trkpt lat="49.06337334061203" lon="7.902465410959898"><ele>434.50000000000006</ele><time>2026-05-01T15:02:06Z</time></trkpt><trkpt lat="49.063311092870734" lon="7.9024845428594"><ele>433.0</ele><time>2026-05-01T15:02:08Z</time></trkpt><trkpt lat="49.063229367973896" lon="7.902542561834732"><ele>430.4</ele><time>2026-05-01T15:02:09Z</time></trkpt><trkpt lat="49.06315942797358" lon="7.902586391039838"><ele>427.79999999999995</ele><time>2026-05-01T15:02:11Z</time></trkpt><trkpt lat="49.063066828252346" lon="7.902689518191342"><ele>425.2</ele><time>2026-05-01T15:02:13Z</time></trkpt><trkpt lat="49.062989326624994" lon="7.902776455511742"><ele>422.6</ele><time>2026-05-01T15:02:14Z</time></trkpt><trkpt lat="49.062906263004294" lon="7.9028702287544"><ele>420.0</ele><time>2026-05-01T15:02:15Z</time></trkpt><trkpt lat="49.06280950617486" lon="7.902915167709678"><ele>420.0</ele><time>2026-05-01T15:02:16Z</time></trkpt><trkpt lat="49.06270290546943" lon="7.902989298214623"><ele>420.0</ele><time>2026-05-01T15:02:17Z</time></trkpt><trkpt lat="49.06259115074816" lon="7.9030773300205635"><ele>420.0</ele><time>2026-05-01T15:02:18Z</time></trkpt><trkpt lat="49.062471548489945" lon="7.903185542221471"><ele>420.0</ele><time>2026-05-01T15:02:19Z</time></trkpt><trkpt lat="49.06237243154806" lon="7.903246771345421"><ele>421.5</ele><time>2026-05-01T15:02:20Z</time></trkpt><trkpt lat="49.062265699972976" lon="7.903320668112919"><ele>423.0</ele><time>2026-05-01T15:02:21Z</time></trkpt><trkpt lat="49.06215706611862" lon="7.903376689868951"><ele>424.5</ele><time>2026-05-01T15:02:22Z</time></trkpt><trkpt lat="49.06208407028286" lon="7.903412336475683"><ele>426.0</ele><time>2026-05-01T15:02:23Z</time></trkpt><trkpt lat="49.062022049608856" lon="7.903433429721979"><ele>427.5</ele><time>2026-05-01T15:02:24Z</time></trkpt><trkpt lat="49.061954527059285" lon="7.903438340252458"><ele>429.0</ele><time>2026-05-01T15:02:25Z</time></trkpt><trkpt lat="49.061827695368066" lon="7.903483497169573"><ele>429.0</ele><time>2026-05-01T15:02:27Z</time></trkpt><trkpt lat="49.06176098733242" lon="7.903493054183045"><ele>429.0</ele><time>2026-05-01T15:02:28Z</time></trkpt><trkpt lat="49.06169637465472" lon="7.903521365361721"><ele>429.0</ele><time>2026-05-01T15:02:29Z</time></trkpt><trkpt lat="49.0616223640139" lon="7.903527094884714"><ele>429.0</ele><time>2026-05-01T15:02:30Z</time></trkpt><trkpt lat="49.06153026801259" lon="7.903486196935228"><ele>429.0</ele><time>2026-05-01T15:02:32Z</time></trkpt><trkpt lat="49.061452428332096" lon="7.903450739240212"><ele>429.0</ele><time>2026-05-01T15:02:33Z</time></trkpt><trkpt lat="49.06138332771173" lon="7.903444499058843"><ele>428.5</ele><time>2026-05-01T15:02:34Z</time></trkpt><trkpt lat="49.06131040208848" lon="7.903446944403294"><ele>428.0</ele><time>2026-05-01T15:02:35Z</time></trkpt><trkpt lat="49.06123722778853" lon="7.903422153948012"><ele>427.5</ele><time>2026-05-01T15:02:36Z</time></trkpt><trkpt lat="49.061161803952494" lon="7.90340058582892"><ele>427.0</ele><time>2026-05-01T15:02:37Z</time></trkpt><trkpt lat="49.061089464836016" lon="7.903407957425829"><ele>426.5</ele><time>2026-05-01T15:02:38Z</time></trkpt><trkpt lat="49.061018000714604" lon="7.903373953676746"><ele>426.0</ele><time>2026-05-01T15:02:39Z</time></trkpt><trkpt lat="49.06089887890245" lon="7.90333460994501"><ele>422.0</ele><time>2026-05-01T15:02:41Z</time></trkpt><trkpt lat="49.06076556151722" lon="7.903332468288882"><ele>418.0</ele><time>2026-05-01T15:02:43Z</time></trkpt><trkpt lat="49.06069807242465" lon="7.903306983935185"><ele>414.0</ele><time>2026-05-01T15:02:44Z</time></trkpt><trkpt lat="49.060568991572914" lon="7.903227121081426"><ele>410.0</ele><time>2026-05-01T15:02:46Z</time></trkpt><trkpt lat="49.06050567146897" lon="7.903227991924158"><ele>406.0</ele><time>2026-05-01T15:02:47Z</time></trkpt><trkpt lat="49.060377031291246" lon="7.903192856569246"><ele>406.00000000000006</ele><time>2026-05-01T15:02:49Z</time></trkpt><trkpt lat="49.060300030434234" lon="7.903173385675699"><ele>406.0</ele><time>2026-05-01T15:02:50Z</time></trkpt><trkpt lat="49.06023628466993" lon="7.903143774853084"><ele>406.0</ele><time>2026-05-01T15:02:51Z</time></trkpt><trkpt lat="49.060169088458565" lon="7.90314822305945"><ele>406.0</ele><time>2026-05-01T15:02:52Z</time></trkpt><trkpt lat="49.060096632377125" lon="7.903114601433642"><ele>406.00000000000006</ele><time>2026-05-01T15:02:53Z</time></trkpt><trkpt lat="49.05998959703645" lon="7.903111080480155"><ele>406.0</ele><time>2026-05-01T15:02:55Z</time></trkpt><trkpt lat="49.05988139442374" lon="7.9030739350449535"><ele>406.6</ele><time>2026-05-01T15:02:57Z</time></trkpt><trkpt lat="49.05976723273383" lon="7.903044246918508"><ele>407.20000000000005</ele><time>2026-05-01T15:02:59Z</time></trkpt><trkpt lat="49.05964651441217" lon="7.903018080212058"><ele>407.79999999999995</ele><time>2026-05-01T15:03:01Z</time></trkpt><trkpt lat="49.05953985725385" lon="7.902975528393548"><ele>408.4</ele><time>2026-05-01T15:03:03Z</time></trkpt><trkpt lat="49.05947810745947" lon="7.902939404851077"><ele>409.0</ele><time>2026-05-01T15:03:04Z</time></trkpt><trkpt lat="49.059416283936855" lon="7.902911448484119"><ele>409.00000000000006</ele><time>2026-05-01T15:03:08Z</time></trkpt><trkpt lat="49.05935107382646" lon="7.9029053774853395"><ele>409.0</ele><time>2026-05-01T15:03:32Z</time></trkpt><trkpt lat="49.05927642904391" lon="7.902896969247905"><ele>409.0</ele><time>2026-05-01T15:03:35Z</time></trkpt><trkpt lat="49.05920793310639" lon="7.902858892667172"><ele>409.0</ele><time>2026-05-01T15:03:37Z</time></trkpt><trkpt lat="49.059125590508714" lon="7.90286284952398"><ele>409.00000000000006</ele><time>2026-05-01T15:03:39Z</time></trkpt><trkpt lat="49.05901504684934" lon="7.90281334804413"><ele>409.0</ele><time>2026-05-01T15:03:41Z</time></trkpt><trkpt lat="49.05890392923447" lon="7.902780318520257"><ele>408.83333333333337</ele><time>2026-05-01T15:03:43Z</time></trkpt><trkpt lat="49.05884235794629" lon="7.902758405941603"><ele>408.6666666666667</ele><time>2026-05-01T15:03:44Z</time></trkpt><trkpt lat="49.05871501324471" lon="7.90273274971401"><ele>408.5</ele><time>2026-05-01T15:03:46Z</time></trkpt><trkpt lat="49.058638928195265" lon="7.902703148366346"><ele>408.33333333333337</ele><time>2026-05-01T15:03:47Z</time></trkpt><trkpt lat="49.05856603945796" lon="7.902680898219571"><ele>408.1666666666667</ele><time>2026-05-01T15:03:48Z</time></trkpt><trkpt lat="49.05849520551546" lon="7.902649380292982"><ele>408.0</ele><time>2026-05-01T15:03:49Z</time></trkpt><trkpt lat="49.05841665823353" lon="7.902627539222078"><ele>408.0</ele><time>2026-05-01T15:03:50Z</time></trkpt><trkpt lat="49.058338143932794" lon="7.902611935882199"><ele>408.0</ele><time>2026-05-01T15:03:51Z</time></trkpt><trkpt lat="49.05825455715247" lon="7.902581909233319"><ele>408.0</ele><time>2026-05-01T15:03:52Z</time></trkpt><trkpt lat="49.05817753460368" lon="7.90256454736459"><ele>408.0</ele><time>2026-05-01T15:03:53Z</time></trkpt><trkpt lat="49.05810758634188" lon="7.902552163490732"><ele>408.0</ele><time>2026-05-01T15:03:54Z</time></trkpt><trkpt lat="49.05803101048303" lon="7.902514701098793"><ele>408.0</ele><time>2026-05-01T15:03:55Z</time></trkpt><trkpt lat="49.05795137798629" lon="7.902479629733142"><ele>404.2</ele><time>2026-05-01T15:03:56Z</time></trkpt><trkpt lat="49.05786700777939" lon="7.902425034837992"><ele>400.4</ele><time>2026-05-01T15:03:57Z</time></trkpt><trkpt lat="49.05778917452706" lon="7.902381507191602"><ele>396.59999999999997</ele><time>2026-05-01T15:03:58Z</time></trkpt><trkpt lat="49.0577098316561" lon="7.902328312768124"><ele>392.79999999999995</ele><time>2026-05-01T15:03:59Z</time></trkpt><trkpt lat="49.05762218141059" lon="7.902266844809659"><ele>389.0</ele><time>2026-05-01T15:04:00Z</time></trkpt><trkpt lat="49.0575312888039" lon="7.902223897262104"><ele>389.3333333333333</ele><time>2026-05-01T15:04:01Z</time></trkpt><trkpt lat="49.057441721566036" lon="7.902200885305834"><ele>389.66666666666663</ele><time>2026-05-01T15:04:02Z</time></trkpt><trkpt lat="49.05735804830791" lon="7.902178396743376"><ele>390.0</ele><time>2026-05-01T15:04:03Z</time></trkpt><trkpt lat="49.057277557362504" lon="7.9021571092342455"><ele>390.33333333333337</ele><time>2026-05-01T15:04:04Z</time></trkpt><trkpt lat="49.057203128227265" lon="7.902155929238036"><ele>390.6666666666667</ele><time>2026-05-01T15:04:05Z</time></trkpt><trkpt lat="49.05711000321479" lon="7.902128445635946"><ele>391.0</ele><time>2026-05-01T15:04:06Z</time></trkpt><trkpt lat="49.057031406788106" lon="7.902122547026642"><ele>390.99999999999994</ele><time>2026-05-01T15:04:07Z</time></trkpt><trkpt lat="49.056963536972106" lon="7.902127113531262"><ele>391.0</ele><time>2026-05-01T15:04:08Z</time></trkpt><trkpt lat="49.05688014690606" lon="7.902122739175348"><ele>391.0</ele><time>2026-05-01T15:04:09Z</time></trkpt><trkpt lat="49.056807310861565" lon="7.902125825332248"><ele>391.0</ele><time>2026-05-01T15:04:10Z</time></trkpt><trkpt lat="49.056741098800316" lon="7.90210662804458"><ele>391.0</ele><time>2026-05-01T15:04:11Z</time></trkpt><trkpt lat="49.05666641777287" lon="7.902071327367964"><ele>390.99999999999994</ele><time>2026-05-01T15:04:12Z</time></trkpt><trkpt lat="49.056598905424494" lon="7.902029442522161"><ele>391.0</ele><time>2026-05-01T15:04:13Z</time></trkpt><trkpt lat="49.05654258903449" lon="7.901974532257283"><ele>392.6</ele><time>2026-05-01T15:04:14Z</time></trkpt><trkpt lat="49.05645186966475" lon="7.9018815467932235"><ele>394.20000000000005</ele><time>2026-05-01T15:04:16Z</time></trkpt><trkpt lat="49.05637154784522" lon="7.901794258889757"><ele>395.79999999999995</ele><time>2026-05-01T15:04:18Z</time></trkpt><trkpt lat="49.05629809911617" lon="7.901681591801138"><ele>397.4</ele><time>2026-05-01T15:04:20Z</time></trkpt><trkpt lat="49.056231184894656" lon="7.901637102694136"><ele>399.0</ele><time>2026-05-01T15:04:22Z</time></trkpt><trkpt lat="49.05615408660076" lon="7.901534569026144"><ele>399.0</ele><time>2026-05-01T15:04:24Z</time></trkpt><trkpt lat="49.056079835589976" lon="7.901446807336586"><ele>399.0</ele><time>2026-05-01T15:04:26Z</time></trkpt><trkpt lat="49.05602115278956" lon="7.9013354668652305"><ele>399.0</ele><time>2026-05-01T15:04:30Z</time></trkpt><trkpt lat="49.05594934912095" lon="7.901217596514937"><ele>399.0</ele><time>2026-05-01T15:04:33Z</time></trkpt><trkpt lat="49.05590091496779" lon="7.901149116525985"><ele>399.0</ele><time>2026-05-01T15:04:35Z</time></trkpt><trkpt lat="49.05585159731715" lon="7.901073471100973"><ele>399.0</ele><time>2026-05-01T15:04:38Z</time></trkpt><trkpt lat="49.05581035845905" lon="7.9009867699957805"><ele>400.3333333333333</ele><time>2026-05-01T15:04:42Z</time></trkpt><trkpt lat="49.05577704743695" lon="7.900895620141924"><ele>401.66666666666663</ele><time>2026-05-01T15:04:45Z</time></trkpt><trkpt lat="49.055742589894535" lon="7.9007857446526"><ele>403.0</ele><time>2026-05-01T15:05:09Z</time></trkpt><trkpt lat="49.05567830805106" lon="7.900709640434254"><ele>404.3333333333333</ele><time>2026-05-01T15:05:17Z</time></trkpt><trkpt lat="49.05561871169842" lon="7.900595365656124"><ele>405.66666666666663</ele><time>2026-05-01T15:05:19Z</time></trkpt><trkpt lat="49.055558460336044" lon="7.900502429852945"><ele>407.0</ele><time>2026-05-01T15:05:21Z</time></trkpt><trkpt lat="49.05547225654723" lon="7.900370140114572"><ele>407.0</ele><time>2026-05-01T15:05:23Z</time></trkpt><trkpt lat="49.055419974010114" lon="7.9002738757551825"><ele>407.0</ele><time>2026-05-01T15:05:24Z</time></trkpt><trkpt lat="49.05538373306946" lon="7.900174748203804"><ele>407.0</ele><time>2026-05-01T15:05:25Z</time></trkpt><trkpt lat="49.05528591275327" lon="7.900052086907625"><ele>407.0</ele><time>2026-05-01T15:05:27Z</time></trkpt><trkpt lat="49.05522974393327" lon="7.899913816790022"><ele>407.0</ele><time>2026-05-01T15:05:28Z</time></trkpt><trkpt lat="49.055191768872376" lon="7.89983522580419"><ele>403.6</ele><time>2026-05-01T15:05:29Z</time></trkpt><trkpt lat="49.055137985536234" lon="7.899701828609964"><ele>400.20000000000005</ele><time>2026-05-01T15:05:30Z</time></trkpt><trkpt lat="49.05508477836451" lon="7.899586589310395"><ele>396.8</ele><time>2026-05-01T15:05:31Z</time></trkpt><trkpt lat="49.055034618154146" lon="7.899483934405634"><ele>393.4</ele><time>2026-05-01T15:05:32Z</time></trkpt><trkpt lat="49.05498212754271" lon="7.899360607628624"><ele>390.0</ele><time>2026-05-01T15:05:33Z</time></trkpt><trkpt lat="49.0549321623534" lon="7.899245320031935"><ele>390.0</ele><time>2026-05-01T15:05:34Z</time></trkpt><trkpt lat="49.05488187992421" lon="7.899129806999203"><ele>390.0</ele><time>2026-05-01T15:05:35Z</time></trkpt><trkpt lat="49.054827869481535" lon="7.899032203250435"><ele>390.0</ele><time>2026-05-01T15:05:36Z</time></trkpt><trkpt lat="49.05477899599353" lon="7.898893267685648"><ele>390.0</ele><time>2026-05-01T15:05:37Z</time></trkpt><trkpt lat="49.05473485945283" lon="7.898786294361741"><ele>390.0</ele><time>2026-05-01T15:05:38Z</time></trkpt><trkpt lat="49.05467966504048" lon="7.898635587788192"><ele>390.0</ele><time>2026-05-01T15:05:39Z</time></trkpt><trkpt lat="49.05464073422476" lon="7.898552287769803"><ele>390.0</ele><time>2026-05-01T15:05:40Z</time></trkpt><trkpt lat="49.05459219765826" lon="7.898445801699206"><ele>390.0</ele><time>2026-05-01T15:05:41Z</time></trkpt><trkpt lat="49.054547567650204" lon="7.898347224464838"><ele>390.0</ele><time>2026-05-01T15:05:42Z</time></trkpt><trkpt lat="49.05450066400541" lon="7.898249211336784"><ele>390.0</ele><time>2026-05-01T15:05:43Z</time></trkpt><trkpt lat="49.05441238268992" lon="7.898081809491985"><ele>386.8333333333333</ele><time>2026-05-01T15:05:45Z</time></trkpt><trkpt lat="49.05431840617861" lon="7.898010085088415"><ele>383.6666666666667</ele><time>2026-05-01T15:05:47Z</time></trkpt><trkpt lat="49.054264962281" lon="7.897941985096226"><ele>380.5</ele><time>2026-05-01T15:05:48Z</time></trkpt><trkpt lat="49.05420569351847" lon="7.89783797732"><ele>377.33333333333337</ele><time>2026-05-01T15:05:49Z</time></trkpt><trkpt lat="49.05414124328193" lon="7.89773296624807"><ele>374.1666666666667</ele><time>2026-05-01T15:05:50Z</time></trkpt><trkpt lat="49.054069060861615" lon="7.897659722629891"><ele>371.0</ele><time>2026-05-01T15:05:51Z</time></trkpt><trkpt lat="49.05401401836037" lon="7.897596375922846"><ele>367.4</ele><time>2026-05-01T15:05:52Z</time></trkpt><trkpt lat="49.05395146908287" lon="7.897533834596783"><ele>363.8</ele><time>2026-05-01T15:05:53Z</time></trkpt><trkpt lat="49.05383414680641" lon="7.897424907646206"><ele>360.2</ele><time>2026-05-01T15:05:55Z</time></trkpt><trkpt lat="49.053763157656824" lon="7.897348285604474"><ele>356.59999999999997</ele><time>2026-05-01T15:05:56Z</time></trkpt><trkpt lat="49.05368128389113" lon="7.897282469678246"><ele>353.0</ele><time>2026-05-01T15:05:57Z</time></trkpt><trkpt lat="49.0536015310251" lon="7.897253146779108"><ele>353.0</ele><time>2026-05-01T15:05:58Z</time></trkpt><trkpt lat="49.0534586169799" lon="7.897225925421732"><ele>353.0</ele><time>2026-05-01T15:06:00Z</time></trkpt><trkpt lat="49.05337567827969" lon="7.897218900927561"><ele>353.0</ele><time>2026-05-01T15:06:01Z</time></trkpt><trkpt lat="49.053304925228375" lon="7.897219486468291"><ele>353.0</ele><time>2026-05-01T15:06:02Z</time></trkpt><trkpt lat="49.05324120830088" lon="7.897243627807087"><ele>353.0</ele><time>2026-05-01T15:06:03Z</time></trkpt><trkpt lat="49.05312157888539" lon="7.89731078589877"><ele>352.0</ele><time>2026-05-01T15:06:05Z</time></trkpt><trkpt lat="49.05307199407951" lon="7.897379956887671"><ele>351.0</ele><time>2026-05-01T15:06:06Z</time></trkpt><trkpt lat="49.05301491445037" lon="7.897436469517357"><ele>350.0</ele><time>2026-05-01T15:06:07Z</time></trkpt><trkpt lat="49.05295199905888" lon="7.897508427885061"><ele>349.0</ele><time>2026-05-01T15:06:08Z</time></trkpt><trkpt lat="49.05290635861467" lon="7.897575847744512"><ele>348.0</ele><time>2026-05-01T15:06:09Z</time></trkpt><trkpt lat="49.05285494045926" lon="7.897632099012674"><ele>347.0</ele><time>2026-05-01T15:06:10Z</time></trkpt><trkpt lat="49.05281730051868" lon="7.8977470965984065"><ele>346.0</ele><time>2026-05-01T15:06:11Z</time></trkpt><trkpt lat="49.052777670082925" lon="7.897838840042472"><ele>346.0</ele><time>2026-05-01T15:06:12Z</time></trkpt><trkpt lat="49.052674316118754" lon="7.898016817956952"><ele>346.0</ele><time>2026-05-01T15:06:14Z</time></trkpt><trkpt lat="49.05260247634797" lon="7.898109729092629"><ele>346.0</ele><time>2026-05-01T15:06:15Z</time></trkpt><trkpt lat="49.05254564314969" lon="7.898163274981441"><ele>346.0</ele><time>2026-05-01T15:06:16Z</time></trkpt><trkpt lat="49.05247517721736" lon="7.898227319078294"><ele>346.0</ele><time>2026-05-01T15:06:17Z</time></trkpt><trkpt lat="49.052388247131994" lon="7.898295615091197"><ele>343.6</ele><time>2026-05-01T15:06:18Z</time></trkpt><trkpt lat="49.05232943260446" lon="7.89837506624842"><ele>341.20000000000005</ele><time>2026-05-01T15:06:19Z</time></trkpt><trkpt lat="49.05224786678088" lon="7.898508011594735"><ele>338.79999999999995</ele><time>2026-05-01T15:06:21Z</time></trkpt><trkpt lat="49.05213396933029" lon="7.898636492799364"><ele>336.4</ele><time>2026-05-01T15:06:23Z</time></trkpt><trkpt lat="49.05204564502298" lon="7.898735959286633"><ele>334.0</ele><time>2026-05-01T15:06:25Z</time></trkpt><trkpt lat="49.05193554510548" lon="7.8988289181390385"><ele>334.0</ele><time>2026-05-01T15:06:27Z</time></trkpt><trkpt lat="49.05187694249494" lon="7.898900664012807"><ele>334.0</ele><time>2026-05-01T15:06:29Z</time></trkpt><trkpt lat="49.051809721925665" lon="7.898890334269378"><ele>334.0</ele><time>2026-05-01T15:06:35Z</time></trkpt><trkpt lat="49.05180915185831" lon="7.89900797130156"><ele>334.0</ele><time>2026-05-01T15:06:39Z</time></trkpt><trkpt lat="49.05187919886562" lon="7.89892691355823"><ele>334.0</ele><time>2026-05-01T15:06:46Z</time></trkpt><trkpt lat="49.0518263018297" lon="7.899063139126894"><ele>334.0</ele><time>2026-05-01T15:06:53Z</time></trkpt><trkpt lat="49.051798888598654" lon="7.899150404039693"><ele>332.16666666666663</ele><time>2026-05-01T15:06:55Z</time></trkpt><trkpt lat="49.05180873339491" lon="7.899266860619845"><ele>330.3333333333333</ele><time>2026-05-01T15:06:58Z</time></trkpt><trkpt lat="49.05182906086425" lon="7.899402276371149"><ele>328.5</ele><time>2026-05-01T15:07:01Z</time></trkpt><trkpt lat="49.05186598312997" lon="7.899507459802398"><ele>326.6666666666667</ele><time>2026-05-01T15:07:10Z</time></trkpt><trkpt lat="49.05192795829717" lon="7.899568252214929"><ele>324.83333333333337</ele><time>2026-05-01T15:07:55Z</time></trkpt><trkpt lat="49.05197385929606" lon="7.8996538865533115"><ele>323.0</ele><time>2026-05-01T15:08:00Z</time></trkpt><trkpt lat="49.0520204987424" lon="7.899729476887754"><ele>323.0</ele><time>2026-05-01T15:08:04Z</time></trkpt><trkpt lat="49.05205660938106" lon="7.899846290226829"><ele>323.0</ele><time>2026-05-01T15:08:09Z</time></trkpt><trkpt lat="49.052093741775124" lon="7.899929342958969"><ele>323.0</ele><time>2026-05-01T15:08:14Z</time></trkpt><trkpt lat="49.052149902663174" lon="7.900018348045732"><ele>323.0</ele><time>2026-05-01T15:08:19Z</time></trkpt><trkpt lat="49.05220383435527" lon="7.900079060468672"><ele>323.0</ele><time>2026-05-01T15:08:23Z</time></trkpt><trkpt lat="49.0522525119972" lon="7.900176974741988"><ele>323.0</ele><time>2026-05-01T15:08:27Z</time></trkpt><trkpt lat="49.05230406531714" lon="7.900266819371662"><ele>321.7142857142857</ele><time>2026-05-01T15:08:32Z</time></trkpt><trkpt lat="49.05234753915613" lon="7.900372242804015"><ele>320.42857142857144</ele><time>2026-05-01T15:08:36Z</time></trkpt><trkpt lat="49.05240548685894" lon="7.900443898213415"><ele>319.1428571428571</ele><time>2026-05-01T15:08:40Z</time></trkpt><trkpt lat="49.05243173099365" lon="7.900542398215373"><ele>317.8571428571429</ele><time>2026-05-01T15:08:44Z</time></trkpt><trkpt lat="49.05246927970665" lon="7.900636707973881"><ele>316.57142857142856</ele><time>2026-05-01T15:08:48Z</time></trkpt><trkpt lat="49.052502680481254" lon="7.900731372187077"><ele>315.2857142857143</ele><time>2026-05-01T15:08:51Z</time></trkpt><trkpt lat="49.05255798346952" lon="7.900794895597594"><ele>314.0</ele><time>2026-05-01T15:08:55Z</time></trkpt><trkpt lat="49.05261570777092" lon="7.900875242024939"><ele>318.1428571428571</ele><time>2026-05-01T15:08:58Z</time></trkpt><trkpt lat="49.0526606922919" lon="7.900964299006375"><ele>322.2857142857143</ele><time>2026-05-01T15:09:01Z</time></trkpt><trkpt lat="49.05267904632321" lon="7.9010630073602774"><ele>326.42857142857144</ele><time>2026-05-01T15:09:04Z</time></trkpt><trkpt lat="49.05271954302057" lon="7.9011383584644745"><ele>330.57142857142856</ele><time>2026-05-01T15:09:08Z</time></trkpt><trkpt lat="49.052756497751766" lon="7.901216695227021"><ele>334.7142857142857</ele><time>2026-05-01T15:09:12Z</time></trkpt><trkpt lat="49.05279515513278" lon="7.901315471609451"><ele>338.85714285714283</ele><time>2026-05-01T15:09:16Z</time></trkpt><trkpt lat="49.05282419609897" lon="7.901435213104733"><ele>343.0</ele><time>2026-05-01T15:09:22Z</time></trkpt><trkpt lat="49.05287919683697" lon="7.901522913742375"><ele>343.0</ele><time>2026-05-01T15:09:25Z</time></trkpt><trkpt lat="49.052928493137" lon="7.901621728496563"><ele>343.0</ele><time>2026-05-01T15:09:28Z</time></trkpt><trkpt lat="49.05294674406186" lon="7.901758445033823"><ele>343.0</ele><time>2026-05-01T15:09:31Z</time></trkpt><trkpt lat="49.0529731605711" lon="7.901864942411236"><ele>343.0</ele><time>2026-05-01T15:09:36Z</time></trkpt><trkpt lat="49.05301884807957" lon="7.901969387736836"><ele>343.0</ele><time>2026-05-01T15:09:39Z</time></trkpt><trkpt lat="49.053059028424734" lon="7.902061076391458"><ele>343.0</ele><time>2026-05-01T15:09:43Z</time></trkpt><trkpt lat="49.05307724525327" lon="7.90217863269076"><ele>343.14285714285717</ele><time>2026-05-01T15:09:47Z</time></trkpt><trkpt lat="49.05305991367525" lon="7.902294242928845"><ele>343.2857142857143</ele><time>2026-05-01T15:09:51Z</time></trkpt><trkpt lat="49.05306975286418" lon="7.902389388849663"><ele>343.42857142857144</ele><time>2026-05-01T15:09:54Z</time></trkpt><trkpt lat="49.05310670544119" lon="7.902486623182926"><ele>343.57142857142856</ele><time>2026-05-01T15:09:59Z</time></trkpt><trkpt lat="49.05313623936518" lon="7.902581810141805"><ele>343.7142857142857</ele><time>2026-05-01T15:10:03Z</time></trkpt><trkpt lat="49.05318782370883" lon="7.902668218225431"><ele>343.8571428571429</ele><time>2026-05-01T15:10:08Z</time></trkpt><trkpt lat="49.05317262454366" lon="7.902788892568961"><ele>344.0</ele><time>2026-05-01T15:10:12Z</time></trkpt><trkpt lat="49.05317095217737" lon="7.902910812010652"><ele>345.8571428571429</ele><time>2026-05-01T15:10:18Z</time></trkpt><trkpt lat="49.05319170513131" lon="7.903009517121237"><ele>347.7142857142857</ele><time>2026-05-01T15:10:22Z</time></trkpt><trkpt lat="49.05315355067511" lon="7.90310464449659"><ele>349.57142857142856</ele><time>2026-05-01T15:10:26Z</time></trkpt><trkpt lat="49.053119634231436" lon="7.903193185506342"><ele>351.42857142857144</ele><time>2026-05-01T15:10:30Z</time></trkpt><trkpt lat="49.053080372351026" lon="7.903275418435119"><ele>353.2857142857143</ele><time>2026-05-01T15:10:35Z</time></trkpt><trkpt lat="49.053017849421515" lon="7.9033471772340205"><ele>355.14285714285717</ele><time>2026-05-01T15:10:40Z</time></trkpt><trkpt lat="49.05298557251042" lon="7.903440868982362"><ele>357.0</ele><time>2026-05-01T15:10:45Z</time></trkpt><trkpt lat="49.05301280278369" lon="7.903340753724586"><ele>357.0</ele><time>2026-05-01T15:11:07Z</time></trkpt><trkpt lat="49.0529493364177" lon="7.903310883853928"><ele>357.0</ele><time>2026-05-01T15:11:45Z</time></trkpt><trkpt lat="49.05287543284658" lon="7.903319731409464"><ele>357.0</ele><time>2026-05-01T15:11:48Z</time></trkpt><trkpt lat="49.05280377961514" lon="7.9033573074543595"><ele>357.0</ele><time>2026-05-01T15:11:50Z</time></trkpt><trkpt lat="49.05271722316885" lon="7.903353132874074"><ele>357.0</ele><time>2026-05-01T15:11:52Z</time></trkpt><trkpt lat="49.0526380868974" lon="7.9033618021850565"><ele>357.0</ele><time>2026-05-01T15:11:54Z</time></trkpt><trkpt lat="49.052568111786584" lon="7.903404867699291"><ele>357.6666666666667</ele><time>2026-05-01T15:11:56Z</time></trkpt><trkpt lat="49.05247020818917" lon="7.90342331727958"><ele>358.3333333333333</ele><time>2026-05-01T15:11:59Z</time></trkpt><trkpt lat="49.052385883738374" lon="7.903428178878502"><ele>359.0</ele><time>2026-05-01T15:12:01Z</time></trkpt><trkpt lat="49.05230856938139" lon="7.903453913804107"><ele>359.66666666666663</ele><time>2026-05-01T15:12:04Z</time></trkpt><trkpt lat="49.05223200294593" lon="7.9034421409280275"><ele>360.3333333333333</ele><time>2026-05-01T15:12:12Z</time></trkpt><trkpt lat="49.05213882227215" lon="7.903459788173094"><ele>361.0</ele><time>2026-05-01T15:12:14Z</time></trkpt><trkpt lat="49.052068767628604" lon="7.90346894853808"><ele>361.0</ele><time>2026-05-01T15:12:16Z</time></trkpt><trkpt lat="49.05200370029755" lon="7.903479563369254"><ele>361.0</ele><time>2026-05-01T15:12:18Z</time></trkpt><trkpt lat="49.051926412703224" lon="7.903474339468304"><ele>361.0</ele><time>2026-05-01T15:12:20Z</time></trkpt><trkpt lat="49.05183458481936" lon="7.90347393024815"><ele>361.0</ele><time>2026-05-01T15:12:22Z</time></trkpt><trkpt lat="49.05175079720791" lon="7.9034834168726436"><ele>361.0</ele><time>2026-05-01T15:12:24Z</time></trkpt><trkpt lat="49.0516803880797" lon="7.903497130183752"><ele>361.0</ele><time>2026-05-01T15:12:26Z</time></trkpt><trkpt lat="49.05160160200436" lon="7.903521534736439"><ele>359.16666666666663</ele><time>2026-05-01T15:12:28Z</time></trkpt><trkpt lat="49.05152069361043" lon="7.903531522904903"><ele>357.3333333333333</ele><time>2026-05-01T15:12:30Z</time></trkpt><trkpt lat="49.05144852767682" lon="7.903524068328268"><ele>355.5</ele><time>2026-05-01T15:12:32Z</time></trkpt><trkpt lat="49.05138347339649" lon="7.903503011396693"><ele>353.6666666666667</ele><time>2026-05-01T15:12:34Z</time></trkpt><trkpt lat="49.05131345807854" lon="7.9035159031413995"><ele>351.83333333333337</ele><time>2026-05-01T15:12:36Z</time></trkpt><trkpt lat="49.051214069671246" lon="7.903528070279355"><ele>350.0</ele><time>2026-05-01T15:12:39Z</time></trkpt><trkpt lat="49.051136622920374" lon="7.90351839206576"><ele>350.0</ele><time>2026-05-01T15:12:42Z</time></trkpt><trkpt lat="49.05106675030494" lon="7.903521599381207"><ele>350.0</ele><time>2026-05-01T15:12:44Z</time></trkpt><trkpt lat="49.050995947540784" lon="7.903518024467896"><ele>350.0</ele><time>2026-05-01T15:12:46Z</time></trkpt><trkpt lat="49.050926911513" lon="7.90350090114805"><ele>350.0</ele><time>2026-05-01T15:12:48Z</time></trkpt><trkpt lat="49.05084062839516" lon="7.903510516378816"><ele>350.0</ele><time>2026-05-01T15:12:52Z</time></trkpt><trkpt lat="49.0507672846806" lon="7.90349439066705"><ele>350.0</ele><time>2026-05-01T15:12:54Z</time></trkpt><trkpt lat="49.05070047101203" lon="7.90348347909181"><ele>350.0</ele><time>2026-05-01T15:12:56Z</time></trkpt><trkpt lat="49.05063443000062" lon="7.903472354302239"><ele>345.6666666666667</ele><time>2026-05-01T15:12:59Z</time></trkpt><trkpt lat="49.05053862409506" lon="7.903513867345896"><ele>341.33333333333337</ele><time>2026-05-01T15:13:08Z</time></trkpt><trkpt lat="49.050472813600216" lon="7.903516317608428"><ele>337.0</ele><time>2026-05-01T15:13:10Z</time></trkpt><trkpt lat="49.050395565715235" lon="7.903546215162326"><ele>332.6666666666667</ele><time>2026-05-01T15:13:13Z</time></trkpt><trkpt lat="49.05032922250529" lon="7.903545567661814"><ele>328.3333333333333</ele><time>2026-05-01T15:13:15Z</time></trkpt><trkpt lat="49.05024959962591" lon="7.903552693658107"><ele>324.0</ele><time>2026-05-01T15:13:17Z</time></trkpt><trkpt lat="49.05018683587061" lon="7.903574968027543"><ele>324.0</ele><time>2026-05-01T15:13:19Z</time></trkpt><trkpt lat="49.050095608348286" lon="7.903593695254159"><ele>324.0</ele><time>2026-05-01T15:13:22Z</time></trkpt><trkpt lat="49.05004287201439" lon="7.903646880667348"><ele>324.0</ele><time>2026-05-01T15:13:24Z</time></trkpt><trkpt lat="49.04996835590761" lon="7.9036900022310315"><ele>324.0</ele><time>2026-05-01T15:13:27Z</time></trkpt><trkpt lat="49.04988922394145" lon="7.903709281018798"><ele>324.0</ele><time>2026-05-01T15:13:31Z</time></trkpt><trkpt lat="49.04982822145565" lon="7.903803337502449"><ele>324.0</ele><time>2026-05-01T15:13:35Z</time></trkpt><trkpt lat="49.049772343968336" lon="7.903887998901624"><ele>321.5</ele><time>2026-05-01T15:13:38Z</time></trkpt><trkpt lat="49.0497186146882" lon="7.90399473436636"><ele>319.0</ele><time>2026-05-01T15:13:41Z</time></trkpt><trkpt lat="49.049662368094765" lon="7.904067172680793"><ele>316.5</ele><time>2026-05-01T15:13:45Z</time></trkpt><trkpt lat="49.04961004438267" lon="7.904174466104549"><ele>314.0</ele><time>2026-05-01T15:13:48Z</time></trkpt><trkpt lat="49.049582186355295" lon="7.904271335086614"><ele>311.5</ele><time>2026-05-01T15:13:55Z</time></trkpt><trkpt lat="49.049533971764056" lon="7.904348405928082"><ele>309.0</ele><time>2026-05-01T15:14:00Z</time></trkpt><trkpt lat="49.04945753851225" lon="7.9044204233736615"><ele>309.00000000000006</ele><time>2026-05-01T15:14:03Z</time></trkpt><trkpt lat="49.049376779449865" lon="7.9044358765944365"><ele>309.0</ele><time>2026-05-01T15:14:07Z</time></trkpt><trkpt lat="49.049313116359656" lon="7.904495004536693"><ele>309.0</ele><time>2026-05-01T15:14:12Z</time></trkpt><trkpt lat="49.049232822973266" lon="7.904505984814292"><ele>309.0</ele><time>2026-05-01T15:14:22Z</time></trkpt><trkpt lat="49.04916642061137" lon="7.904480875561977"><ele>309.0</ele><time>2026-05-01T15:14:24Z</time></trkpt><trkpt lat="49.04909419692113" lon="7.904464432702059"><ele>309.00000000000006</ele><time>2026-05-01T15:14:27Z</time></trkpt><trkpt lat="49.04902904748583" lon="7.90446823606668"><ele>309.0</ele><time>2026-05-01T15:14:30Z</time></trkpt><trkpt lat="49.04895859424263" lon="7.904494255973025"><ele>305.28571428571433</ele><time>2026-05-01T15:14:37Z</time></trkpt><trkpt lat="49.0489162545518" lon="7.904566124201767"><ele>301.57142857142856</ele><time>2026-05-01T15:15:06Z</time></trkpt><trkpt lat="49.04885120117819" lon="7.90455402661953"><ele>297.8571428571429</ele><time>2026-05-01T15:15:10Z</time></trkpt><trkpt lat="49.04878430573069" lon="7.904588285532782"><ele>294.14285714285717</ele><time>2026-05-01T15:15:14Z</time></trkpt><trkpt lat="49.048707454963356" lon="7.904615754583459"><ele>290.42857142857144</ele><time>2026-05-01T15:15:17Z</time></trkpt><trkpt lat="49.04864926717217" lon="7.9046653463563805"><ele>286.7142857142857</ele><time>2026-05-01T15:15:29Z</time></trkpt><trkpt lat="49.048584813894564" lon="7.90467659828493"><ele>283.0</ele><time>2026-05-01T15:15:47Z</time></trkpt><trkpt lat="49.048527930118425" lon="7.904733514100401"><ele>283.0</ele><time>2026-05-01T15:15:51Z</time></trkpt><trkpt lat="49.0484636323356" lon="7.904783810784042"><ele>283.0</ele><time>2026-05-01T15:16:01Z</time></trkpt><trkpt lat="49.04839698015847" lon="7.904858710564526"><ele>283.0</ele><time>2026-05-01T15:16:06Z</time></trkpt><trkpt lat="49.04836072724327" lon="7.904943861832559"><ele>283.0</ele><time>2026-05-01T15:16:09Z</time></trkpt><trkpt lat="49.04829956670878" lon="7.90499893874636"><ele>283.0</ele><time>2026-05-01T15:16:12Z</time></trkpt><trkpt lat="49.04823141759888" lon="7.905045398626627"><ele>283.0</ele><time>2026-05-01T15:16:16Z</time></trkpt><trkpt lat="49.04817059286449" lon="7.905109954030728"><ele>283.0</ele><time>2026-05-01T15:16:20Z</time></trkpt><trkpt lat="49.04811675635955" lon="7.905179235956488"><ele>280.14285714285717</ele><time>2026-05-01T15:16:23Z</time></trkpt><trkpt lat="49.0480627766851" lon="7.90523031901235"><ele>277.28571428571433</ele><time>2026-05-01T15:16:26Z</time></trkpt><trkpt lat="49.04803088966246" lon="7.905336626596603"><ele>274.42857142857144</ele><time>2026-05-01T15:16:30Z</time></trkpt><trkpt lat="49.04796032621796" lon="7.905380904807201"><ele>271.57142857142856</ele><time>2026-05-01T15:16:35Z</time></trkpt><trkpt lat="49.04791577949357" lon="7.905473221521664"><ele>268.71428571428567</ele><time>2026-05-01T15:16:39Z</time></trkpt><trkpt lat="49.04787120104044" lon="7.905585714052334"><ele>265.85714285714283</ele><time>2026-05-01T15:16:43Z</time></trkpt><trkpt lat="49.04783413382751" lon="7.905665082060661"><ele>263.0</ele><time>2026-05-01T15:16:46Z</time></trkpt><trkpt lat="49.047804004508166" lon="7.905753887108216"><ele>263.0</ele><time>2026-05-01T15:16:49Z</time></trkpt><trkpt lat="49.04774124929711" lon="7.905853507854912"><ele>263.0</ele><time>2026-05-01T15:16:52Z</time></trkpt><trkpt lat="49.04768646298826" lon="7.905912722950135"><ele>263.0</ele><time>2026-05-01T15:16:55Z</time></trkpt><trkpt lat="49.04763391606058" lon="7.905980328018909"><ele>263.0</ele><time>2026-05-01T15:16:58Z</time></trkpt><trkpt lat="49.04759120170113" lon="7.906058205308248"><ele>263.0</ele><time>2026-05-01T15:17:01Z</time></trkpt><trkpt lat="49.04754749692655" lon="7.906134261339301"><ele>263.0</ele><time>2026-05-01T15:17:03Z</time></trkpt><trkpt lat="49.04751954836895" lon="7.9062456097978915"><ele>263.0</ele><time>2026-05-01T15:17:05Z</time></trkpt><trkpt lat="49.047463250798735" lon="7.9063568515346985"><ele>259.6666666666667</ele><time>2026-05-01T15:17:07Z</time></trkpt><trkpt lat="49.047411234287225" lon="7.906463618610441"><ele>256.33333333333337</ele><time>2026-05-01T15:17:10Z</time></trkpt><trkpt lat="49.04738107537025" lon="7.906571636692763"><ele>253.0</ele><time>2026-05-01T15:17:12Z</time></trkpt><trkpt lat="49.047323948093926" lon="7.906686801074207"><ele>249.66666666666669</ele><time>2026-05-01T15:17:15Z</time></trkpt><trkpt lat="49.04728751088221" lon="7.906786061231162"><ele>246.33333333333334</ele><time>2026-05-01T15:17:18Z</time></trkpt><trkpt lat="49.04725226894449" lon="7.906866141188694"><ele>243.0</ele><time>2026-05-01T15:17:21Z</time></trkpt><trkpt lat="49.047214915406194" lon="7.906948914662826"><ele>242.83333333333334</ele><time>2026-05-01T15:17:40Z</time></trkpt><trkpt lat="49.0471530541362" lon="7.907005531561865"><ele>242.66666666666669</ele><time>2026-05-01T15:17:51Z</time></trkpt><trkpt lat="49.04712776079005" lon="7.907096819242721"><ele>242.5</ele><time>2026-05-01T15:17:57Z</time></trkpt><trkpt lat="49.04705376717733" lon="7.907139783995239"><ele>242.33333333333334</ele><time>2026-05-01T15:18:02Z</time></trkpt><trkpt lat="49.046986085749815" lon="7.907230427031813"><ele>242.16666666666669</ele><time>2026-05-01T15:18:05Z</time></trkpt><trkpt lat="49.04691202594948" lon="7.907276790835935"><ele>242.0</ele><time>2026-05-01T15:18:07Z</time></trkpt><trkpt lat="49.04683453696468" lon="7.907294246438574"><ele>242.00000000000003</ele><time>2026-05-01T15:18:11Z</time></trkpt><trkpt lat="49.04678034044686" lon="7.907343290308954"><ele>242.0</ele><time>2026-05-01T15:18:13Z</time></trkpt><trkpt lat="49.04673122465984" lon="7.907257687348596"><ele>242.0</ele><time>2026-05-01T15:18:50Z</time></trkpt><trkpt lat="49.046636686879644" lon="7.907260088163031"><ele>242.0</ele><time>2026-05-01T15:19:04Z</time></trkpt><trkpt lat="49.04656123111532" lon="7.907259229011395"><ele>242.00000000000003</ele><time>2026-05-01T15:19:07Z</time></trkpt><trkpt lat="49.04648922659461" lon="7.907261727522431"><ele>242.0</ele><time>2026-05-01T15:19:09Z</time></trkpt><trkpt lat="49.04639184314767" lon="7.90722819855174"><ele>237.39999999999998</ele><time>2026-05-01T15:19:12Z</time></trkpt><trkpt lat="49.04631994207816" lon="7.907131284682751"><ele>232.79999999999998</ele><time>2026-05-01T15:19:14Z</time></trkpt><trkpt lat="49.04622882885234" lon="7.907045722884873"><ele>228.2</ele><time>2026-05-01T15:19:16Z</time></trkpt><trkpt lat="49.04614920530199" lon="7.906959880150868"><ele>223.6</ele><time>2026-05-01T15:19:18Z</time></trkpt><trkpt lat="49.046091844287965" lon="7.906902212942494"><ele>219.0</ele><time>2026-05-01T15:19:19Z</time></trkpt><trkpt lat="49.04598023349194" lon="7.9067956194385705"><ele>218.33333333333334</ele><time>2026-05-01T15:19:21Z</time></trkpt><trkpt lat="49.045922783795234" lon="7.9067387903161"><ele>217.66666666666669</ele><time>2026-05-01T15:19:22Z</time></trkpt><trkpt lat="49.04585258589554" lon="7.906681831548428"><ele>217.0</ele><time>2026-05-01T15:19:23Z</time></trkpt><trkpt lat="49.04578160179339" lon="7.906644720045055"><ele>216.33333333333334</ele><time>2026-05-01T15:19:24Z</time></trkpt><trkpt lat="49.04572047533478" lon="7.9066072370772185"><ele>215.66666666666669</ele><time>2026-05-01T15:19:25Z</time></trkpt><trkpt lat="49.045667986571544" lon="7.906541501355049"><ele>215.0</ele><time>2026-05-01T15:19:26Z</time></trkpt><trkpt lat="49.04556764768872" lon="7.9064687492614"><ele>215.00000000000003</ele><time>2026-05-01T15:19:28Z</time></trkpt><trkpt lat="49.045472697896216" lon="7.906416301953694"><ele>215.0</ele><time>2026-05-01T15:19:30Z</time></trkpt><trkpt lat="49.04536854277626" lon="7.90637645619029"><ele>215.0</ele><time>2026-05-01T15:19:33Z</time></trkpt><trkpt lat="49.04530550680621" lon="7.906325085627051"><ele>215.0</ele><time>2026-05-01T15:19:36Z</time></trkpt><trkpt lat="49.04522389140431" lon="7.906311847505954"><ele>215.00000000000003</ele><time>2026-05-01T15:19:38Z</time></trkpt><trkpt lat="49.04515410746352" lon="7.906337680864637"><ele>215.0</ele><time>2026-05-01T15:19:40Z</time></trkpt><trkpt lat="49.04509097234217" lon="7.9063956834595235"><ele>215.00000000000003</ele><time>2026-05-01T15:19:42Z</time></trkpt><trkpt lat="49.04504906136722" lon="7.9064687660672694"><ele>215.0</ele><time>2026-05-01T15:19:43Z</time></trkpt><trkpt lat="49.04502094224086" lon="7.906567315052021"><ele>215.0</ele><time>2026-05-01T15:19:46Z</time></trkpt><trkpt lat="49.04495685209466" lon="7.906678246418771"><ele>215.0</ele><time>2026-05-01T15:19:48Z</time></trkpt><trkpt lat="49.04493876547598" lon="7.906814368257461"><ele>215.00000000000003</ele><time>2026-05-01T15:19:51Z</time></trkpt><trkpt lat="49.04485982990291" lon="7.906860413471349"><ele>215.0</ele><time>2026-05-01T15:19:54Z</time></trkpt><trkpt lat="49.0447881259046" lon="7.906916268196749"><ele>211.6</ele><time>2026-05-01T15:19:56Z</time></trkpt><trkpt lat="49.04470916618378" lon="7.9069395352237635"><ele>208.2</ele><time>2026-05-01T15:19:58Z</time></trkpt><trkpt lat="49.04461037555884" lon="7.906953630892215"><ele>204.8</ele><time>2026-05-01T15:20:01Z</time></trkpt><trkpt lat="49.04442755685211" lon="7.90686588159211"><ele>201.4</ele><time>2026-05-01T15:20:03Z</time></trkpt><trkpt lat="49.04436675728001" lon="7.906917710320885"><ele>198.0</ele><time>2026-05-01T15:20:05Z</time></trkpt><trkpt lat="49.04429516149431" lon="7.906931192621406"><ele>198.0</ele><time>2026-05-01T15:20:07Z</time></trkpt><trkpt lat="49.0442001359152" lon="7.906911577805848"><ele>198.0</ele><time>2026-05-01T15:20:10Z</time></trkpt><trkpt lat="49.04410752652442" lon="7.906892320577702"><ele>198.0</ele><time>2026-05-01T15:20:13Z</time></trkpt><trkpt lat="49.04395415869342" lon="7.9068683028303175"><ele>198.0</ele><time>2026-05-01T15:20:15Z</time></trkpt><trkpt lat="49.04386917617179" lon="7.906853109085519"><ele>198.0</ele><time>2026-05-01T15:20:16Z</time></trkpt><trkpt lat="49.043785190208304" lon="7.906881300171926"><ele>197.5</ele><time>2026-05-01T15:20:18Z</time></trkpt><trkpt lat="49.04367928737342" lon="7.906877394897516"><ele>197.0</ele><time>2026-05-01T15:20:21Z</time></trkpt><trkpt lat="49.043560477841424" lon="7.90691519141236"><ele>196.5</ele><time>2026-05-01T15:20:23Z</time></trkpt><trkpt lat="49.04348736460238" lon="7.906950519399915"><ele>196.0</ele><time>2026-05-01T15:20:26Z</time></trkpt><trkpt lat="49.04337372378782" lon="7.907090473800199"><ele>196.0</ele><time>2026-05-01T15:20:28Z</time></trkpt><trkpt lat="49.04331560099638" lon="7.907173681111224"><ele>196.0</ele><time>2026-05-01T15:20:30Z</time></trkpt><trkpt lat="49.0432040832754" lon="7.9072496002807116"><ele>196.0</ele><time>2026-05-01T15:20:32Z</time></trkpt><trkpt lat="49.043135713286475" lon="7.9073224353947325"><ele>196.0</ele><time>2026-05-01T15:20:34Z</time></trkpt><trkpt lat="49.04306949074243" lon="7.907401394903764"><ele>196.0</ele><time>2026-05-01T15:20:36Z</time></trkpt><trkpt lat="49.04300042802851" lon="7.907498657464614"><ele>195.60000000000002</ele><time>2026-05-01T15:20:38Z</time></trkpt><trkpt lat="49.04293574305088" lon="7.907596717938231"><ele>195.2</ele><time>2026-05-01T15:20:40Z</time></trkpt><trkpt lat="49.0428795367334" lon="7.907682819906365"><ele>194.8</ele><time>2026-05-01T15:20:42Z</time></trkpt><trkpt lat="49.04278369901946" lon="7.9077445512033595"><ele>194.39999999999998</ele><time>2026-05-01T15:20:44Z</time></trkpt><trkpt lat="49.04268795371603" lon="7.907757319805367"><ele>194.0</ele><time>2026-05-01T15:20:46Z</time></trkpt><trkpt lat="49.042589244273586" lon="7.907799535173749"><ele>194.00000000000003</ele><time>2026-05-01T15:20:48Z</time></trkpt><trkpt lat="49.04247792328463" lon="7.907870565585942"><ele>194.0</ele><time>2026-05-01T15:20:50Z</time></trkpt><trkpt lat="49.04241470687547" lon="7.907885359409806"><ele>194.0</ele><time>2026-05-01T15:20:51Z</time></trkpt><trkpt lat="49.04234515347659" lon="7.907883502184256"><ele>194.0</ele><time>2026-05-01T15:20:54Z</time></trkpt><trkpt lat="49.04226975477155" lon="7.9078669489741165"><ele>194.00000000000003</ele><time>2026-05-01T15:20:56Z</time></trkpt><trkpt lat="49.04217773970912" lon="7.9078886418329795"><ele>194.0</ele><time>2026-05-01T15:21:00Z</time></trkpt><trkpt lat="49.042128848443674" lon="7.907959144501658"><ele>194.6</ele><time>2026-05-01T15:21:03Z</time></trkpt><trkpt lat="49.04205584925431" lon="7.908041968806054"><ele>195.2</ele><time>2026-05-01T15:21:07Z</time></trkpt><trkpt lat="49.04193436220168" lon="7.908086317747997"><ele>195.79999999999998</ele><time>2026-05-01T15:21:10Z</time></trkpt><trkpt lat="49.04183425272947" lon="7.908109483750877"><ele>196.39999999999998</ele><time>2026-05-01T15:21:12Z</time></trkpt><trkpt lat="49.0417547928764" lon="7.908124869479346"><ele>197.0</ele><time>2026-05-01T15:21:13Z</time></trkpt><trkpt lat="49.04171898715576" lon="7.908214553212788"><ele>197.0</ele><time>2026-05-01T15:21:15Z</time></trkpt><trkpt lat="49.041712589430965" lon="7.908339476119225"><ele>197.0</ele><time>2026-05-01T15:21:19Z</time></trkpt><trkpt lat="49.04161962635192" lon="7.908507814525672"><ele>197.0</ele><time>2026-05-01T15:21:21Z</time></trkpt><trkpt lat="49.04156745513782" lon="7.90858575675613"><ele>197.0</ele><time>2026-05-01T15:21:22Z</time></trkpt><trkpt lat="49.04148338560342" lon="7.908681923877796"><ele>197.0</ele><time>2026-05-01T15:21:24Z</time></trkpt><trkpt lat="49.04138609762212" lon="7.908765718898197"><ele>197.14285714285714</ele><time>2026-05-01T15:21:27Z</time></trkpt><trkpt lat="49.041326588351424" lon="7.908816186680521"><ele>197.28571428571428</ele><time>2026-05-01T15:21:28Z</time></trkpt><trkpt lat="49.04126818104348" lon="7.908877379885665"><ele>197.42857142857144</ele><time>2026-05-01T15:21:29Z</time></trkpt><trkpt lat="49.04123899564028" lon="7.908970041792964"><ele>197.57142857142856</ele><time>2026-05-01T15:21:30Z</time></trkpt><trkpt lat="49.041244469592314" lon="7.909082688280578"><ele>197.7142857142857</ele><time>2026-05-01T15:21:33Z</time></trkpt><trkpt lat="49.041235726532896" lon="7.909183047263673"><ele>197.85714285714286</ele><time>2026-05-01T15:21:35Z</time></trkpt><trkpt lat="49.04120138732695" lon="7.9093201235202075"><ele>198.0</ele><time>2026-05-01T15:21:38Z</time></trkpt><trkpt lat="49.04122134760091" lon="7.909443567816161"><ele>198.0</ele><time>2026-05-01T15:21:40Z</time></trkpt><trkpt lat="49.04120361847318" lon="7.909562374408566"><ele>198.0</ele><time>2026-05-01T15:21:42Z</time></trkpt><trkpt lat="49.04119774309833" lon="7.909685467563313"><ele>198.0</ele><time>2026-05-01T15:21:44Z</time></trkpt><trkpt lat="49.04119804565219" lon="7.909807068098647"><ele>198.0</ele><time>2026-05-01T15:21:46Z</time></trkpt><trkpt lat="49.0411790631513" lon="7.909949594564846"><ele>198.0</ele><time>2026-05-01T15:21:49Z</time></trkpt><trkpt lat="49.04114221765201" lon="7.910054279102887"><ele>198.0</ele><time>2026-05-01T15:21:51Z</time></trkpt><trkpt lat="49.041087939974055" lon="7.9101500349376925"><ele>199.16666666666666</ele><time>2026-05-01T15:21:53Z</time></trkpt><trkpt lat="49.04108852606096" lon="7.910283270725523"><ele>200.33333333333331</ele><time>2026-05-01T15:21:55Z</time></trkpt><trkpt lat="49.04111910676458" lon="7.910399485658465"><ele>201.5</ele><time>2026-05-01T15:21:57Z</time></trkpt><trkpt lat="49.04115093302415" lon="7.910505099034059"><ele>202.66666666666666</ele><time>2026-05-01T15:21:59Z</time></trkpt><trkpt lat="49.04115968989448" lon="7.910623994993257"><ele>203.83333333333331</ele><time>2026-05-01T15:22:02Z</time></trkpt><trkpt lat="49.04118790021881" lon="7.9107585644768355"><ele>205.0</ele><time>2026-05-01T15:22:05Z</time></trkpt><trkpt lat="49.04118057977043" lon="7.910885984508681"><ele>206.0</ele><time>2026-05-01T15:22:07Z</time></trkpt><trkpt lat="49.041235095224884" lon="7.910968284768709"><ele>207.0</ele><time>2026-05-01T15:22:09Z</time></trkpt><trkpt lat="49.0412554678645" lon="7.911109597665094"><ele>208.0</ele><time>2026-05-01T15:22:11Z</time></trkpt><trkpt lat="49.04127948236534" lon="7.911259235342818"><ele>209.0</ele><time>2026-05-01T15:22:13Z</time></trkpt><trkpt lat="49.04124429837626" lon="7.911479736217518"><ele>210.0</ele><time>2026-05-01T15:22:15Z</time></trkpt><trkpt lat="49.0412741975583" lon="7.911601890553317"><ele>210.0</ele><time>2026-05-01T15:22:17Z</time></trkpt><trkpt lat="49.04124508766083" lon="7.9117120840215005"><ele>210.0</ele><time>2026-05-01T15:22:18Z</time></trkpt><trkpt lat="49.04121301498526" lon="7.911892316374142"><ele>210.0</ele><time>2026-05-01T15:22:19Z</time></trkpt><trkpt lat="49.04120164762557" lon="7.911987907691807"><ele>210.0</ele><time>2026-05-01T15:22:23Z</time></trkpt><trkpt lat="49.041211009590754" lon="7.912103809427825"><ele>210.0</ele><time>2026-05-01T15:22:58Z</time></trkpt><trkpt lat="49.04121627348887" lon="7.912228087660196"><ele>210.0</ele><time>2026-05-01T15:23:04Z</time></trkpt><trkpt lat="49.04125857608124" lon="7.912312949324458"><ele>210.33333333333334</ele><time>2026-05-01T15:23:08Z</time></trkpt><trkpt lat="49.041287871051935" lon="7.912411663798728"><ele>210.66666666666669</ele><time>2026-05-01T15:23:11Z</time></trkpt><trkpt lat="49.041345849235114" lon="7.91246824613685"><ele>211.0</ele><time>2026-05-01T15:23:14Z</time></trkpt><trkpt lat="49.041441373033294" lon="7.912533102935977"><ele>211.33333333333334</ele><time>2026-05-01T15:23:17Z</time></trkpt><trkpt lat="49.04149595444602" lon="7.912638052780525"><ele>211.66666666666669</ele><time>2026-05-01T15:23:20Z</time></trkpt><trkpt lat="49.041549344717296" lon="7.912768545691986"><ele>212.0</ele><time>2026-05-01T15:23:22Z</time></trkpt><trkpt lat="49.04159331530515" lon="7.9128858176142565"><ele>212.66666666666669</ele><time>2026-05-01T15:23:25Z</time></trkpt><trkpt lat="49.041606212898486" lon="7.912986407036016"><ele>213.33333333333334</ele><time>2026-05-01T15:23:27Z</time></trkpt><trkpt lat="49.041630810924744" lon="7.913117190044048"><ele>214.0</ele><time>2026-05-01T15:23:30Z</time></trkpt><trkpt lat="49.041675422156935" lon="7.913205956146027"><ele>214.66666666666669</ele><time>2026-05-01T15:23:33Z</time></trkpt><trkpt lat="49.04169408863948" lon="7.913298828885055"><ele>215.33333333333334</ele><time>2026-05-01T15:23:35Z</time></trkpt><trkpt lat="49.041727920344094" lon="7.9134143900137195"><ele>216.0</ele><time>2026-05-01T15:23:38Z</time></trkpt><trkpt lat="49.041754209193876" lon="7.913519036983094"><ele>216.66666666666666</ele><time>2026-05-01T15:23:41Z</time></trkpt><trkpt lat="49.04181242615681" lon="7.913593741586862"><ele>217.33333333333331</ele><time>2026-05-01T15:24:45Z</time></trkpt><trkpt lat="49.04181020605623" lon="7.9137222129715346"><ele>218.0</ele><time>2026-05-01T15:24:50Z</time></trkpt><trkpt lat="49.041776488487564" lon="7.913807682181737"><ele>218.66666666666666</ele><time>2026-05-01T15:24:52Z</time></trkpt><trkpt lat="49.0417221296802" lon="7.913901143241846"><ele>219.33333333333331</ele><time>2026-05-01T15:24:54Z</time></trkpt><trkpt lat="49.0416558875696" lon="7.913986335147585"><ele>220.0</ele><time>2026-05-01T15:24:56Z</time></trkpt><trkpt lat="49.04160371928714" lon="7.9140773818212855"><ele>220.33333333333331</ele><time>2026-05-01T15:24:57Z</time></trkpt><trkpt lat="49.04158913223245" lon="7.914222525814322"><ele>220.66666666666666</ele><time>2026-05-01T15:24:59Z</time></trkpt><trkpt lat="49.04160404170253" lon="7.914340185061905"><ele>221.0</ele><time>2026-05-01T15:25:01Z</time></trkpt><trkpt lat="49.04163728609553" lon="7.914439536160752"><ele>221.33333333333331</ele><time>2026-05-01T15:25:03Z</time></trkpt><trkpt lat="49.041649927714666" lon="7.914549975314767"><ele>221.66666666666666</ele><time>2026-05-01T15:25:07Z</time></trkpt><trkpt lat="49.04168005735688" lon="7.9146533391182"><ele>222.0</ele><time>2026-05-01T15:25:09Z</time></trkpt><trkpt lat="49.04169095396427" lon="7.9147549131424375"><ele>222.0</ele><time>2026-05-01T15:25:11Z</time></trkpt><trkpt lat="49.04173115751355" lon="7.914842951436155"><ele>222.0</ele><time>2026-05-01T15:25:14Z</time></trkpt><trkpt lat="49.04176982721778" lon="7.914953159013266"><ele>222.0</ele><time>2026-05-01T15:25:17Z</time></trkpt><trkpt lat="49.04178439951564" lon="7.915058195687354"><ele>222.0</ele><time>2026-05-01T15:25:20Z</time></trkpt><trkpt lat="49.041818714499584" lon="7.915179436265903"><ele>222.0</ele><time>2026-05-01T15:25:23Z</time></trkpt><trkpt lat="49.04181626577791" lon="7.915283858268607"><ele>222.0</ele><time>2026-05-01T15:25:28Z</time></trkpt><trkpt lat="49.04176852925539" lon="7.915354701164183"><ele>222.0</ele><time>2026-05-01T15:25:34Z</time></trkpt><trkpt lat="49.04174168753164" lon="7.915252638079288"><ele>222.85714285714283</ele><time>2026-05-01T15:26:46Z</time></trkpt><trkpt lat="49.04169488075101" lon="7.91517803973341"><ele>223.71428571428572</ele><time>2026-05-01T15:26:49Z</time></trkpt><trkpt lat="49.041640954068754" lon="7.9151173591081445"><ele>224.57142857142856</ele><time>2026-05-01T15:26:55Z</time></trkpt><trkpt lat="49.041611295320735" lon="7.915014949930595"><ele>225.42857142857142</ele><time>2026-05-01T15:26:59Z</time></trkpt><trkpt lat="49.04156197247448" lon="7.914942614385864"><ele>226.28571428571428</ele><time>2026-05-01T15:27:03Z</time></trkpt><trkpt lat="49.04150341910681" lon="7.91486835874579"><ele>227.14285714285714</ele><time>2026-05-01T15:27:09Z</time></trkpt><trkpt lat="49.041467524070676" lon="7.9147817598877825"><ele>228.0</ele><time>2026-05-01T15:27:13Z</time></trkpt><trkpt lat="49.041442014481085" lon="7.914685720588018"><ele>229.28571428571428</ele><time>2026-05-01T15:27:17Z</time></trkpt><trkpt lat="49.041417325730215" lon="7.914588816179881"><ele>230.57142857142856</ele><time>2026-05-01T15:27:22Z</time></trkpt><trkpt lat="49.04138412630041" lon="7.914484482385431"><ele>231.85714285714283</ele><time>2026-05-01T15:27:26Z</time></trkpt><trkpt lat="49.04133855322365" lon="7.914405268263568"><ele>233.1428571428571</ele><time>2026-05-01T15:27:30Z</time></trkpt><trkpt lat="49.0412966572131" lon="7.914311884991118"><ele>234.42857142857142</ele><time>2026-05-01T15:27:34Z</time></trkpt><trkpt lat="49.04125421698698" lon="7.914229643807784"><ele>235.71428571428567</ele><time>2026-05-01T15:27:38Z</time></trkpt><trkpt lat="49.04119590075688" lon="7.914142536038804"><ele>236.99999999999997</ele><time>2026-05-01T15:27:43Z</time></trkpt><trkpt lat="49.041146578176985" lon="7.914077107663437"><ele>236.99999999999997</ele><time>2026-05-01T15:27:47Z</time></trkpt><trkpt lat="49.04109871377971" lon="7.9139961743444776"><ele>237.0</ele><time>2026-05-01T15:27:51Z</time></trkpt><trkpt lat="49.041047849191706" lon="7.913893647788158"><ele>236.99999999999997</ele><time>2026-05-01T15:27:55Z</time></trkpt><trkpt lat="49.04098896971457" lon="7.9138228187477395"><ele>236.99999999999997</ele><time>2026-05-01T15:28:00Z</time></trkpt><trkpt lat="49.04093616996097" lon="7.913770156046364"><ele>237.0</ele><time>2026-05-01T15:28:04Z</time></trkpt><trkpt lat="49.04088114922122" lon="7.913703941345856"><ele>236.99999999999997</ele><time>2026-05-01T15:28:09Z</time></trkpt><trkpt lat="49.0408233193262" lon="7.913655613441699"><ele>236.99999999999997</ele><time>2026-05-01T15:28:13Z</time></trkpt><trkpt lat="49.04075533501862" lon="7.913558558381639"><ele>237.83333333333334</ele><time>2026-05-01T15:28:17Z</time></trkpt><trkpt lat="49.040686191035995" lon="7.913522753777975"><ele>238.66666666666669</ele><time>2026-05-01T15:28:23Z</time></trkpt><trkpt lat="49.04061223820194" lon="7.913461430038115"><ele>239.5</ele><time>2026-05-01T15:28:28Z</time></trkpt><trkpt lat="49.04053810387315" lon="7.913399279855853"><ele>240.33333333333334</ele><time>2026-05-01T15:28:33Z</time></trkpt><trkpt lat="49.04046978360699" lon="7.91338559814015"><ele>241.16666666666669</ele><time>2026-05-01T15:28:37Z</time></trkpt><trkpt lat="49.04039463554531" lon="7.913358617538246"><ele>242.0</ele><time>2026-05-01T15:28:42Z</time></trkpt><trkpt lat="49.04033140423666" lon="7.913378651941811"><ele>240.33333333333334</ele><time>2026-05-01T15:28:46Z</time></trkpt><trkpt lat="49.04025810691012" lon="7.913373443134377"><ele>238.66666666666669</ele><time>2026-05-01T15:28:49Z</time></trkpt><trkpt lat="49.040154385578504" lon="7.913360756294574"><ele>237.0</ele><time>2026-05-01T15:28:53Z</time></trkpt><trkpt lat="49.04007957072075" lon="7.913374646845723"><ele>235.33333333333331</ele><time>2026-05-01T15:28:56Z</time></trkpt><trkpt lat="49.0399846412" lon="7.913389667620588"><ele>233.66666666666666</ele><time>2026-05-01T15:28:59Z</time></trkpt><trkpt lat="49.03989062342855" lon="7.913424359084784"><ele>232.0</ele><time>2026-05-01T15:29:03Z</time></trkpt><trkpt lat="49.03981792973501" lon="7.913499336656141"><ele>230.8571428571429</ele><time>2026-05-01T15:29:07Z</time></trkpt><trkpt lat="49.03976237628333" lon="7.913574089257977"><ele>229.71428571428572</ele><time>2026-05-01T15:29:10Z</time></trkpt><trkpt lat="49.03971011046474" lon="7.913647090094804"><ele>228.57142857142858</ele><time>2026-05-01T15:29:13Z</time></trkpt><trkpt lat="49.03966027050002" lon="7.91373495424666"><ele>227.42857142857144</ele><time>2026-05-01T15:29:16Z</time></trkpt><trkpt lat="49.039631093766474" lon="7.913844730038923"><ele>226.28571428571428</ele><time>2026-05-01T15:29:20Z</time></trkpt><trkpt lat="49.039605468825656" lon="7.9139496358562775"><ele>225.14285714285714</ele><time>2026-05-01T15:29:23Z</time></trkpt><trkpt lat="49.03957043706858" lon="7.914031213433725"><ele>224.0</ele><time>2026-05-01T15:29:26Z</time></trkpt><trkpt lat="49.03953212645402" lon="7.914138130827651"><ele>224.0</ele><time>2026-05-01T15:29:28Z</time></trkpt><trkpt lat="49.039511867234374" lon="7.914233224047949"><ele>224.0</ele><time>2026-05-01T15:29:31Z</time></trkpt><trkpt lat="49.0394765842849" lon="7.9143472513407955"><ele>224.0</ele><time>2026-05-01T15:29:34Z</time></trkpt><trkpt lat="49.03945261739372" lon="7.914466351829081"><ele>224.0</ele><time>2026-05-01T15:29:37Z</time></trkpt><trkpt lat="49.03942885763393" lon="7.914578512081497"><ele>224.0</ele><time>2026-05-01T15:29:40Z</time></trkpt><trkpt lat="49.03940548894563" lon="7.91467248210085"><ele>224.0</ele><time>2026-05-01T15:29:42Z</time></trkpt><trkpt lat="49.03937691286262" lon="7.914771817944364"><ele>224.0</ele><time>2026-05-01T15:29:44Z</time></trkpt><trkpt lat="49.03935040612569" lon="7.914883468310171"><ele>223.83333333333334</ele><time>2026-05-01T15:29:47Z</time></trkpt><trkpt lat="49.039329904735396" lon="7.914985261071412"><ele>223.66666666666669</ele><time>2026-05-01T15:29:50Z</time></trkpt><trkpt lat="49.03931011743244" lon="7.915112810573148"><ele>223.5</ele><time>2026-05-01T15:29:53Z</time></trkpt><trkpt lat="49.03926619067234" lon="7.915206948530567"><ele>223.33333333333331</ele><time>2026-05-01T15:29:55Z</time></trkpt><trkpt lat="49.03923286208097" lon="7.915297777657632"><ele>223.16666666666666</ele><time>2026-05-01T15:29:57Z</time></trkpt><trkpt lat="49.03919138583857" lon="7.915433039872367"><ele>223.0</ele><time>2026-05-01T15:29:59Z</time></trkpt><trkpt lat="49.03917008955196" lon="7.915582300792088"><ele>223.33333333333331</ele><time>2026-05-01T15:30:01Z</time></trkpt><trkpt lat="49.03912982926513" lon="7.915764128894688"><ele>223.66666666666666</ele><time>2026-05-01T15:30:03Z</time></trkpt><trkpt lat="49.03911355460156" lon="7.9158709565892265"><ele>224.0</ele><time>2026-05-01T15:30:06Z</time></trkpt><trkpt lat="49.03914484195524" lon="7.915985254122659"><ele>224.33333333333331</ele><time>2026-05-01T15:30:09Z</time></trkpt><trkpt lat="49.03908929702729" lon="7.916099836532116"><ele>224.66666666666666</ele><time>2026-05-01T15:30:11Z</time></trkpt><trkpt lat="49.039079603085156" lon="7.916216521642654"><ele>225.0</ele><time>2026-05-01T15:30:12Z</time></trkpt><trkpt lat="49.03907697624949" lon="7.916406907142392"><ele>220.66666666666666</ele><time>2026-05-01T15:30:14Z</time></trkpt><trkpt lat="49.03908060750339" lon="7.916578455492107"><ele>216.33333333333331</ele><time>2026-05-01T15:30:16Z</time></trkpt><trkpt lat="49.03907541704968" lon="7.916686300093583"><ele>212.0</ele><time>2026-05-01T15:30:17Z</time></trkpt><trkpt lat="49.039090591294" lon="7.916820606383002"><ele>207.66666666666666</ele><time>2026-05-01T15:30:18Z</time></trkpt><trkpt lat="49.03908665820382" lon="7.916918491664319"><ele>203.33333333333331</ele><time>2026-05-01T15:30:19Z</time></trkpt><trkpt lat="49.039088774827924" lon="7.9170375522994325"><ele>199.0</ele><time>2026-05-01T15:30:20Z</time></trkpt><trkpt lat="49.03908813716533" lon="7.91715090851181"><ele>198.16666666666666</ele><time>2026-05-01T15:30:21Z</time></trkpt><trkpt lat="49.03908686840141" lon="7.917248433676656"><ele>197.33333333333331</ele><time>2026-05-01T15:30:22Z</time></trkpt><trkpt lat="49.03907515629282" lon="7.917387286286904"><ele>196.5</ele><time>2026-05-01T15:30:23Z</time></trkpt><trkpt lat="49.03907712050285" lon="7.917497682175641"><ele>195.66666666666669</ele><time>2026-05-01T15:30:24Z</time></trkpt><trkpt lat="49.03906713606233" lon="7.9176230350241665"><ele>194.83333333333334</ele><time>2026-05-01T15:30:25Z</time></trkpt><trkpt lat="49.03906944695381" lon="7.91774022520443"><ele>194.0</ele><time>2026-05-01T15:30:26Z</time></trkpt><trkpt lat="49.03906844411654" lon="7.917847738075814"><ele>192.6</ele><time>2026-05-01T15:30:27Z</time></trkpt><trkpt lat="49.03907113878932" lon="7.917964353812744"><ele>191.2</ele><time>2026-05-01T15:30:28Z</time></trkpt><trkpt lat="49.039081731629054" lon="7.918069414848173"><ele>189.79999999999998</ele><time>2026-05-01T15:30:29Z</time></trkpt><trkpt lat="49.039088662910764" lon="7.9182501458794645"><ele>188.39999999999998</ele><time>2026-05-01T15:30:31Z</time></trkpt><trkpt lat="49.03911090997516" lon="7.918422671844498"><ele>187.0</ele><time>2026-05-01T15:30:33Z</time></trkpt><trkpt lat="49.0391568357241" lon="7.918566499299191"><ele>190.0</ele><time>2026-05-01T15:30:35Z</time></trkpt><trkpt lat="49.03919668163398" lon="7.918710092905001"><ele>193.0</ele><time>2026-05-01T15:30:37Z</time></trkpt><trkpt lat="49.03924015664535" lon="7.918800773895893"><ele>196.0</ele><time>2026-05-01T15:30:39Z</time></trkpt><trkpt lat="49.03927626784997" lon="7.918908571676529"><ele>199.0</ele><time>2026-05-01T15:30:41Z</time></trkpt><trkpt lat="49.03931355130088" lon="7.9190000442721695"><ele>201.99999999999997</ele><time>2026-05-01T15:30:42Z</time></trkpt><trkpt lat="49.03933928373858" lon="7.91909961537396"><ele>205.0</ele><time>2026-05-01T15:30:43Z</time></trkpt><trkpt lat="49.0393602903397" lon="7.919201134012141"><ele>203.49999999999997</ele><time>2026-05-01T15:30:44Z</time></trkpt><trkpt lat="49.039376686883045" lon="7.919339698918678"><ele>202.0</ele><time>2026-05-01T15:30:45Z</time></trkpt><trkpt lat="49.03937827573115" lon="7.919480863361199"><ele>200.5</ele><time>2026-05-01T15:30:46Z</time></trkpt><trkpt lat="49.03940396046368" lon="7.919594716618192"><ele>199.0</ele><time>2026-05-01T15:30:47Z</time></trkpt><trkpt lat="49.03942014037415" lon="7.919716503654221"><ele>197.49999999999997</ele><time>2026-05-01T15:30:48Z</time></trkpt><trkpt lat="49.03942797183547" lon="7.919830661314893"><ele>196.0</ele><time>2026-05-01T15:30:49Z</time></trkpt><trkpt lat="49.03943541727388" lon="7.919992557090834"><ele>194.16666666666666</ele><time>2026-05-01T15:30:50Z</time></trkpt><trkpt lat="49.039465939244344" lon="7.920099104876305"><ele>192.33333333333331</ele><time>2026-05-01T15:30:51Z</time></trkpt><trkpt lat="49.03948760036094" lon="7.920242327107015"><ele>190.5</ele><time>2026-05-01T15:30:52Z</time></trkpt><trkpt lat="49.03950015028455" lon="7.920383091348478"><ele>188.66666666666666</ele><time>2026-05-01T15:30:53Z</time></trkpt><trkpt lat="49.03951413325517" lon="7.9205126535390695"><ele>186.83333333333331</ele><time>2026-05-01T15:30:54Z</time></trkpt><trkpt lat="49.039521686946074" lon="7.920646829593256"><ele>185.0</ele><time>2026-05-01T15:30:55Z</time></trkpt><trkpt lat="49.03954501183436" lon="7.9207774931460975"><ele>185.0</ele><time>2026-05-01T15:30:56Z</time></trkpt><trkpt lat="49.03954858244343" lon="7.920891575267806"><ele>185.0</ele><time>2026-05-01T15:30:57Z</time></trkpt><trkpt lat="49.03955486818947" lon="7.921009444578491"><ele>185.0</ele><time>2026-05-01T15:30:58Z</time></trkpt><trkpt lat="49.0395681806225" lon="7.921150848344679"><ele>185.0</ele><time>2026-05-01T15:30:59Z</time></trkpt><trkpt lat="49.03957452905516" lon="7.921302891876509"><ele>185.0</ele><time>2026-05-01T15:31:00Z</time></trkpt><trkpt lat="49.03957747639084" lon="7.92141166028727"><ele>185.0</ele><time>2026-05-01T15:31:01Z</time></trkpt><trkpt lat="49.03962482845085" lon="7.921587560781234"><ele>184.0</ele><time>2026-05-01T15:31:03Z</time></trkpt><trkpt lat="49.03965203138756" lon="7.921712818445334"><ele>183.0</ele><time>2026-05-01T15:31:04Z</time></trkpt><trkpt lat="49.03966783463525" lon="7.921842194486146"><ele>182.0</ele><time>2026-05-01T15:31:05Z</time></trkpt><trkpt lat="49.03969462476991" lon="7.921929171245659"><ele>181.0</ele><time>2026-05-01T15:31:06Z</time></trkpt><trkpt lat="49.03971935604695" lon="7.922035726148909"><ele>180.0</ele><time>2026-05-01T15:31:07Z</time></trkpt><trkpt lat="49.03974147287104" lon="7.922162189591988"><ele>179.0</ele><time>2026-05-01T15:31:08Z</time></trkpt><trkpt lat="49.039761132173794" lon="7.9223045074794385"><ele>177.5</ele><time>2026-05-01T15:31:09Z</time></trkpt><trkpt lat="49.03976923710212" lon="7.92249470903333"><ele>176.0</ele><time>2026-05-01T15:31:11Z</time></trkpt><trkpt lat="49.03976372768707" lon="7.9225944112812465"><ele>174.5</ele><time>2026-05-01T15:31:12Z</time></trkpt><trkpt lat="49.039771204230426" lon="7.922699667715434"><ele>173.0</ele><time>2026-05-01T15:31:13Z</time></trkpt><trkpt lat="49.03960709137035" lon="7.923097664218298"><ele>172.0</ele><time>2026-05-01T15:31:15Z</time></trkpt><trkpt lat="49.03967389634698" lon="7.923263285781677"><ele>171.0</ele><time>2026-05-01T15:31:17Z</time></trkpt><trkpt lat="49.03972635081122" lon="7.92342265997382"><ele>170.0</ele><time>2026-05-01T15:31:19Z</time></trkpt><trkpt lat="49.0397552476779" lon="7.923512460622992"><ele>169.0</ele><time>2026-05-01T15:31:21Z</time></trkpt><trkpt lat="49.03980206971363" lon="7.923653277199793"><ele>168.0</ele><time>2026-05-01T15:31:23Z</time></trkpt><trkpt lat="49.03979787501105" lon="7.923802631038183"><ele>167.5</ele><time>2026-05-01T15:31:25Z</time></trkpt><trkpt lat="49.039821580285114" lon="7.923896662363413"><ele>167.0</ele><time>2026-05-01T15:31:26Z</time></trkpt><trkpt lat="49.03983080659243" lon="7.924020898282456"><ele>166.5</ele><time>2026-05-01T15:31:27Z</time></trkpt><trkpt lat="49.03985693535406" lon="7.92411799301692"><ele>166.0</ele><time>2026-05-01T15:31:28Z</time></trkpt><trkpt lat="49.039876042901575" lon="7.924223855586938"><ele>165.5</ele><time>2026-05-01T15:31:29Z</time></trkpt><trkpt lat="49.03989789795048" lon="7.924347445089558"><ele>165.0</ele><time>2026-05-01T15:31:30Z</time></trkpt><trkpt lat="49.03993290199236" lon="7.924455309194285"><ele>165.0</ele><time>2026-05-01T15:31:31Z</time></trkpt><trkpt lat="49.039962037635156" lon="7.9246065713346665"><ele>165.0</ele><time>2026-05-01T15:31:32Z</time></trkpt><trkpt lat="49.039972505017104" lon="7.924747819254781"><ele>165.0</ele><time>2026-05-01T15:31:33Z</time></trkpt><trkpt lat="49.03999336841096" lon="7.924876174184451"><ele>165.0</ele><time>2026-05-01T15:31:34Z</time></trkpt><trkpt lat="49.04001176534214" lon="7.925016071390323"><ele>165.0</ele><time>2026-05-01T15:31:35Z</time></trkpt><trkpt lat="49.04004202368496" lon="7.925163708030121"><ele>165.8</ele><time>2026-05-01T15:31:36Z</time></trkpt><trkpt lat="49.0400865885375" lon="7.925309167834854"><ele>166.6</ele><time>2026-05-01T15:31:37Z</time></trkpt><trkpt lat="49.04011667697736" lon="7.925455981408848"><ele>167.39999999999998</ele><time>2026-05-01T15:31:38Z</time></trkpt><trkpt lat="49.04014787680281" lon="7.9256074717842555"><ele>168.2</ele><time>2026-05-01T15:31:39Z</time></trkpt><trkpt lat="49.040179940612894" lon="7.925764660103376"><ele>169.0</ele><time>2026-05-01T15:31:40Z</time></trkpt><trkpt lat="49.04020929984927" lon="7.92589487376182"><ele>168.0</ele><time>2026-05-01T15:31:41Z</time></trkpt><trkpt lat="49.04023865137278" lon="7.926040848239651"><ele>167.0</ele><time>2026-05-01T15:31:42Z</time></trkpt><trkpt lat="49.04025540448915" lon="7.926193237808534"><ele>166.0</ele><time>2026-05-01T15:31:43Z</time></trkpt><trkpt lat="49.04027068650043" lon="7.926337862557944"><ele>165.0</ele><time>2026-05-01T15:31:44Z</time></trkpt><trkpt lat="49.040287631191944" lon="7.9264828477109335"><ele>164.0</ele><time>2026-05-01T15:31:45Z</time></trkpt><trkpt lat="49.04030573475941" lon="7.926623832088089"><ele>163.79999999999998</ele><time>2026-05-01T15:31:46Z</time></trkpt><trkpt lat="49.0403213927182" lon="7.9267429581670354"><ele>163.6</ele><time>2026-05-01T15:31:47Z</time></trkpt><trkpt lat="49.040327627190074" lon="7.926895716146797"><ele>163.4</ele><time>2026-05-01T15:31:48Z</time></trkpt><trkpt lat="49.04033977813237" lon="7.927027418497151"><ele>163.2</ele><time>2026-05-01T15:31:49Z</time></trkpt><trkpt lat="49.04035192750694" lon="7.927172402597664"><ele>163.0</ele><time>2026-05-01T15:31:50Z</time></trkpt><trkpt lat="49.040361624141646" lon="7.927318398115626"><ele>163.0</ele><time>2026-05-01T15:31:51Z</time></trkpt><trkpt lat="49.04036971430653" lon="7.927455204105209"><ele>163.0</ele><time>2026-05-01T15:31:52Z</time></trkpt><trkpt lat="49.04037902194108" lon="7.927590275609135"><ele>163.0</ele><time>2026-05-01T15:31:53Z</time></trkpt><trkpt lat="49.04038812752543" lon="7.927718057839572"><ele>163.0</ele><time>2026-05-01T15:31:54Z</time></trkpt><trkpt lat="49.0403973702858" lon="7.927841974318366"><ele>163.0</ele><time>2026-05-01T15:31:55Z</time></trkpt><trkpt lat="49.040403216733985" lon="7.927955793456544"><ele>163.0</ele><time>2026-05-01T15:31:56Z</time></trkpt><trkpt lat="49.040402812391996" lon="7.928084314119147"><ele>163.16666666666669</ele><time>2026-05-01T15:31:57Z</time></trkpt><trkpt lat="49.04039388235882" lon="7.928244663521327"><ele>163.33333333333334</ele><time>2026-05-01T15:31:59Z</time></trkpt><trkpt lat="49.040275400662715" lon="7.928258473067064"><ele>163.5</ele><time>2026-05-01T15:32:01Z</time></trkpt><trkpt lat="49.04020475335998" lon="7.928253777658272"><ele>163.66666666666666</ele><time>2026-05-01T15:32:02Z</time></trkpt><trkpt lat="49.04014167321668" lon="7.9282210643780475"><ele>163.83333333333331</ele><time>2026-05-01T15:32:03Z</time></trkpt><trkpt lat="49.04007784476986" lon="7.9282166699620875"><ele>164.0</ele><time>2026-05-01T15:32:04Z</time></trkpt><trkpt lat="49.04001126168492" lon="7.9282208723727665"><ele>164.5</ele><time>2026-05-01T15:32:05Z</time></trkpt><trkpt lat="49.03994364877816" lon="7.928210576707977"><ele>165.0</ele><time>2026-05-01T15:32:06Z</time></trkpt><trkpt lat="49.039807608298446" lon="7.928160243572755"><ele>165.5</ele><time>2026-05-01T15:32:08Z</time></trkpt><trkpt lat="49.03973945508561" lon="7.928121257095233"><ele>166.0</ele><time>2026-05-01T15:32:09Z</time></trkpt><trkpt lat="49.039666460722316" lon="7.928079783545616"><ele>166.5</ele><time>2026-05-01T15:32:10Z</time></trkpt><trkpt lat="49.03960094915536" lon="7.928036689772916"><ele>167.0</ele><time>2026-05-01T15:32:11Z</time></trkpt><trkpt lat="49.039532627349004" lon="7.928003368332765"><ele>167.0</ele><time>2026-05-01T15:32:12Z</time></trkpt><trkpt lat="49.039463336114274" lon="7.928001311033698"><ele>167.0</ele><time>2026-05-01T15:32:13Z</time></trkpt><trkpt lat="49.03939350017642" lon="7.928021478512434"><ele>167.0</ele><time>2026-05-01T15:32:14Z</time></trkpt><trkpt lat="49.039338240129325" lon="7.928088643052466"><ele>167.0</ele><time>2026-05-01T15:32:15Z</time></trkpt><trkpt lat="49.039319366683166" lon="7.928184599837594"><ele>167.0</ele><time>2026-05-01T15:32:16Z</time></trkpt><trkpt lat="49.039351011224966" lon="7.928368103081321"><ele>167.0</ele><time>2026-05-01T15:32:18Z</time></trkpt><trkpt lat="49.03939801389129" lon="7.928542920862603"><ele>167.2</ele><time>2026-05-01T15:32:20Z</time></trkpt><trkpt lat="49.039417225321756" lon="7.928638675588665"><ele>167.39999999999998</ele><time>2026-05-01T15:32:21Z</time></trkpt><trkpt lat="49.03941783135197" lon="7.9288268411991005"><ele>167.60000000000002</ele><time>2026-05-01T15:32:23Z</time></trkpt><trkpt lat="49.039419237318754" lon="7.928924760996528"><ele>167.8</ele><time>2026-05-01T15:32:24Z</time></trkpt><trkpt lat="49.03940796991467" lon="7.929105384744236"><ele>168.0</ele><time>2026-05-01T15:32:26Z</time></trkpt><trkpt lat="49.03937320018954" lon="7.9292882334302295"><ele>167.4</ele><time>2026-05-01T15:32:28Z</time></trkpt><trkpt lat="49.03934601574997" lon="7.929379565021102"><ele>166.8</ele><time>2026-05-01T15:32:29Z</time></trkpt><trkpt lat="49.039312556786015" lon="7.92946095325757"><ele>166.2</ele><time>2026-05-01T15:32:30Z</time></trkpt><trkpt lat="49.0392471063526" lon="7.929627326059275"><ele>165.6</ele><time>2026-05-01T15:32:32Z</time></trkpt><trkpt lat="49.03921600586614" lon="7.929721037170895"><ele>165.0</ele><time>2026-05-01T15:32:33Z</time></trkpt><trkpt lat="49.039142472381265" lon="7.929893227166013"><ele>165.2</ele><time>2026-05-01T15:32:35Z</time></trkpt><trkpt lat="49.039111425975946" lon="7.929982874768721"><ele>165.4</ele><time>2026-05-01T15:32:36Z</time></trkpt><trkpt lat="49.03908405366536" lon="7.930073165498837"><ele>165.60000000000002</ele><time>2026-05-01T15:32:37Z</time></trkpt><trkpt lat="49.03904376915438" lon="7.930262276155767"><ele>165.8</ele><time>2026-05-01T15:32:39Z</time></trkpt><trkpt lat="49.0390022777296" lon="7.930467804675314"><ele>166.0</ele><time>2026-05-01T15:32:41Z</time></trkpt><trkpt lat="49.03899642630678" lon="7.930565066832626"><ele>166.33333333333334</ele><time>2026-05-01T15:32:42Z</time></trkpt><trkpt lat="49.038988820665224" lon="7.930664757720605"><ele>166.66666666666669</ele><time>2026-05-01T15:32:43Z</time></trkpt><trkpt lat="49.038981419342804" lon="7.930763768801275"><ele>167.0</ele><time>2026-05-01T15:32:44Z</time></trkpt><trkpt lat="49.03896637095652" lon="7.930863676803541"><ele>167.33333333333334</ele><time>2026-05-01T15:32:45Z</time></trkpt><trkpt lat="49.03894044891391" lon="7.931042247482766"><ele>167.66666666666666</ele><time>2026-05-01T15:32:47Z</time></trkpt><trkpt lat="49.03892194438115" lon="7.9312367372789945"><ele>168.0</ele><time>2026-05-01T15:32:49Z</time></trkpt><trkpt lat="49.03888564627315" lon="7.931419231472697"><ele>168.0</ele><time>2026-05-01T15:32:51Z</time></trkpt><trkpt lat="49.03880522554086" lon="7.931568212949674"><ele>168.0</ele><time>2026-05-01T15:32:53Z</time></trkpt><trkpt lat="49.03875592090021" lon="7.931628792318702"><ele>168.0</ele><time>2026-05-01T15:32:54Z</time></trkpt><trkpt lat="49.038667292777696" lon="7.931756454418512"><ele>168.0</ele><time>2026-05-01T15:32:56Z</time></trkpt><trkpt lat="49.03857975438195" lon="7.9319006532378085"><ele>168.0</ele><time>2026-05-01T15:32:58Z</time></trkpt><trkpt lat="49.0385270195235" lon="7.932049347126118"><ele>168.0</ele><time>2026-05-01T15:33:00Z</time></trkpt><trkpt lat="49.03849502573229" lon="7.932141360630051"><ele>168.0</ele><time>2026-05-01T15:33:01Z</time></trkpt><trkpt lat="49.03844586493235" lon="7.932297183866311"><ele>168.0</ele><time>2026-05-01T15:33:03Z</time></trkpt><trkpt lat="49.03839355808924" lon="7.932446414741257"><ele>168.0</ele><time>2026-05-01T15:33:05Z</time></trkpt><trkpt lat="49.03836545368155" lon="7.932535996521758"><ele>168.0</ele><time>2026-05-01T15:33:06Z</time></trkpt><trkpt lat="49.03831944410539" lon="7.932671738313506"><ele>168.2</ele><time>2026-05-01T15:33:08Z</time></trkpt><trkpt lat="49.03826811299249" lon="7.932830402942514"><ele>168.4</ele><time>2026-05-01T15:33:10Z</time></trkpt><trkpt lat="49.038227591388605" lon="7.932997857875225"><ele>168.6</ele><time>2026-05-01T15:33:12Z</time></trkpt><trkpt lat="49.03820113490546" lon="7.9330898794115186"><ele>168.79999999999998</ele><time>2026-05-01T15:33:13Z</time></trkpt><trkpt lat="49.03815740071111" lon="7.933255478979147"><ele>169.0</ele><time>2026-05-01T15:33:15Z</time></trkpt><trkpt lat="49.03811540986323" lon="7.9334192787438536"><ele>168.2</ele><time>2026-05-01T15:33:17Z</time></trkpt><trkpt lat="49.03808596830023" lon="7.933510744622884"><ele>167.39999999999998</ele><time>2026-05-01T15:33:18Z</time></trkpt><trkpt lat="49.038050175867106" lon="7.933685652775429"><ele>166.6</ele><time>2026-05-01T15:33:20Z</time></trkpt><trkpt lat="49.03801492617468" lon="7.933849732148467"><ele>165.8</ele><time>2026-05-01T15:33:22Z</time></trkpt><trkpt lat="49.03799758473808" lon="7.934032042529423"><ele>165.0</ele><time>2026-05-01T15:33:24Z</time></trkpt><trkpt lat="49.037989858396706" lon="7.934210337948641"><ele>164.8</ele><time>2026-05-01T15:33:26Z</time></trkpt><trkpt lat="49.03798460769117" lon="7.934388837786254"><ele>164.6</ele><time>2026-05-01T15:33:28Z</time></trkpt><trkpt lat="49.03800795916366" lon="7.934553704836038"><ele>164.39999999999998</ele><time>2026-05-01T15:33:30Z</time></trkpt><trkpt lat="49.038034645380726" lon="7.934710755574002"><ele>164.2</ele><time>2026-05-01T15:33:32Z</time></trkpt><trkpt lat="49.038077399228385" lon="7.93487111290007"><ele>164.0</ele><time>2026-05-01T15:33:34Z</time></trkpt><trkpt lat="49.03811699928134" lon="7.9350208556030575"><ele>163.6</ele><time>2026-05-01T15:33:36Z</time></trkpt><trkpt lat="49.03817432461939" lon="7.935154823696535"><ele>163.2</ele><time>2026-05-01T15:33:38Z</time></trkpt><trkpt lat="49.03822930348612" lon="7.935268811444796"><ele>162.79999999999998</ele><time>2026-05-01T15:33:40Z</time></trkpt><trkpt lat="49.03828213422165" lon="7.9353729033971625"><ele>162.39999999999998</ele><time>2026-05-01T15:33:42Z</time></trkpt><trkpt lat="49.03825457920248" lon="7.9354901172272925"><ele>162.0</ele><time>2026-05-01T15:33:44Z</time></trkpt><trkpt lat="49.03816374725904" lon="7.9355303772649375"><ele>162.0</ele><time>2026-05-01T15:33:46Z</time></trkpt><trkpt lat="49.03806551978567" lon="7.935483126052811"><ele>162.0</ele><time>2026-05-01T15:33:48Z</time></trkpt><trkpt lat="49.03797484938535" lon="7.935491837507734"><ele>162.0</ele><time>2026-05-01T15:33:50Z</time></trkpt><trkpt lat="49.03788799337888" lon="7.935513368495319"><ele>162.0</ele><time>2026-05-01T15:33:52Z</time></trkpt><trkpt lat="49.03779422501379" lon="7.935535160441367"><ele>162.0</ele><time>2026-05-01T15:33:54Z</time></trkpt><trkpt lat="49.03769770867643" lon="7.935565704158208"><ele>162.0</ele><time>2026-05-01T15:33:56Z</time></trkpt><trkpt lat="49.03760904760946" lon="7.935613920498759"><ele>162.0</ele><time>2026-05-01T15:33:58Z</time></trkpt><trkpt lat="49.03753897904284" lon="7.935663440156832"><ele>162.0</ele><time>2026-05-01T15:34:00Z</time></trkpt><trkpt lat="49.03750003491465" lon="7.935518759775615"><ele>162.0</ele><time>2026-05-01T15:34:03Z</time></trkpt><trkpt lat="49.037496152507536" lon="7.935379511854927"><ele>162.0</ele><time>2026-05-01T15:34:05Z</time></trkpt><trkpt lat="49.037491005118085" lon="7.9352418652484005"><ele>162.0</ele><time>2026-05-01T15:34:07Z</time></trkpt><trkpt lat="49.037499690397006" lon="7.935098650105134"><ele>162.0</ele><time>2026-05-01T15:34:09Z</time></trkpt><trkpt lat="49.03750672293303" lon="7.934975505761454"><ele>162.0</ele><time>2026-05-01T15:34:11Z</time></trkpt><trkpt lat="49.03756772214109" lon="7.9350232688258195"><ele>162.0</ele><time>2026-05-01T15:34:14Z</time></trkpt><trkpt lat="49.037512517573575" lon="7.9350823371636405"><ele>162.0</ele><time>2026-05-01T15:34:16Z</time></trkpt><trkpt lat="49.037476617678806" lon="7.935196753276828"><ele>162.0</ele><time>2026-05-01T15:34:19Z</time></trkpt><trkpt lat="49.037466170771836" lon="7.935294324615756"><ele>174.0</ele><time>2026-05-01T15:34:31Z</time></trkpt><trkpt lat="49.03738487072324" lon="7.9351918739441984"><ele>174.0</ele><time>2026-05-01T15:34:41Z</time></trkpt><trkpt lat="49.03731561911146" lon="7.935218906007692"><ele>174.0</ele><time>2026-05-01T15:34:46Z</time></trkpt><trkpt lat="49.03725154510947" lon="7.935230456809007"><ele>174.0</ele><time>2026-05-01T15:34:51Z</time></trkpt><trkpt lat="49.03729628961146" lon="7.935310076848356"><ele>174.0</ele><time>2026-05-01T15:35:17Z</time></trkpt></trkseg></trk></gpx>